<?xml version="1.0" encoding="UTF-8" standalone="no" ?>
<gpx xmlns="http://www.topografix.com/GPX/1/1" xmlns:xsi="http://www.w3.org/2001/XMLSchema-instance" xsi:schemaLocation="http://www.topografix.com/GPX/1/1 http://www.topografix.com/GPX/1/1/gpx.xsd" version="1.1" creator="VisuGPX - https://www.visugpx.com">
  <metadata>
    <name>rando santé autour du lac de st andré</name>
    <desc><![CDATA[comment ...]]></desc>
  </metadata>
  <trk>
    <name><![CDATA[28 oct. 2019]]></name>
    <cmt><![CDATA[13:42:08]]></cmt>
    <desc><![CDATA[comment ...]]></desc>
    <trkseg>
      <trkpt lat="45.49374" lon="5.98828">
        <ele>299</ele>
        <time>2019-10-28T12:42:08Z</time>
      </trkpt>
      <trkpt lat="45.49374" lon="5.98828">
        <ele>299</ele>
        <time>2019-10-28T12:42:09Z</time>
      </trkpt>
      <trkpt lat="45.4937" lon="5.98825">
        <ele>299</ele>
        <time>2019-10-28T12:42:21Z</time>
      </trkpt>
      <trkpt lat="45.49369" lon="5.98822">
        <ele>299</ele>
        <time>2019-10-28T12:42:29Z</time>
      </trkpt>
      <trkpt lat="45.49364" lon="5.98817">
        <ele>299</ele>
        <time>2019-10-28T12:42:36Z</time>
      </trkpt>
      <trkpt lat="45.49362" lon="5.98814">
        <ele>299</ele>
        <time>2019-10-28T12:42:40Z</time>
      </trkpt>
      <trkpt lat="45.49352" lon="5.98801">
        <ele>298</ele>
        <time>2019-10-28T12:43:08Z</time>
      </trkpt>
      <trkpt lat="45.49349" lon="5.98795">
        <ele>298</ele>
        <time>2019-10-28T12:43:11Z</time>
      </trkpt>
      <trkpt lat="45.49349" lon="5.98791">
        <ele>298</ele>
        <time>2019-10-28T12:43:13Z</time>
      </trkpt>
      <trkpt lat="45.49348" lon="5.98785">
        <ele>298</ele>
        <time>2019-10-28T12:43:18Z</time>
      </trkpt>
      <trkpt lat="45.49345" lon="5.98782">
        <ele>298</ele>
        <time>2019-10-28T12:43:21Z</time>
      </trkpt>
      <trkpt lat="45.4934" lon="5.98771">
        <ele>298</ele>
        <time>2019-10-28T12:43:30Z</time>
      </trkpt>
      <trkpt lat="45.49336" lon="5.98766">
        <ele>298</ele>
        <time>2019-10-28T12:43:35Z</time>
      </trkpt>
      <trkpt lat="45.49334" lon="5.98761">
        <ele>298</ele>
        <time>2019-10-28T12:43:40Z</time>
      </trkpt>
      <trkpt lat="45.49328" lon="5.98754">
        <ele>298</ele>
        <time>2019-10-28T12:43:47Z</time>
      </trkpt>
      <trkpt lat="45.49327" lon="5.98749">
        <ele>298</ele>
        <time>2019-10-28T12:43:50Z</time>
      </trkpt>
      <trkpt lat="45.49325" lon="5.98746">
        <ele>298</ele>
        <time>2019-10-28T12:43:53Z</time>
      </trkpt>
      <trkpt lat="45.49322" lon="5.98741">
        <ele>298</ele>
        <time>2019-10-28T12:43:58Z</time>
      </trkpt>
      <trkpt lat="45.49295" lon="5.98708">
        <ele>298</ele>
        <time>2019-10-28T12:44:29Z</time>
      </trkpt>
      <trkpt lat="45.49269" lon="5.98671">
        <ele>299</ele>
        <time>2019-10-28T12:45:01Z</time>
      </trkpt>
      <trkpt lat="45.49244" lon="5.98639">
        <ele>299</ele>
        <time>2019-10-28T12:45:31Z</time>
      </trkpt>
      <trkpt lat="45.49242" lon="5.98636">
        <ele>298</ele>
        <time>2019-10-28T12:45:33Z</time>
      </trkpt>
      <trkpt lat="45.49237" lon="5.98631">
        <ele>298</ele>
        <time>2019-10-28T12:45:38Z</time>
      </trkpt>
      <trkpt lat="45.49234" lon="5.98629">
        <ele>298</ele>
        <time>2019-10-28T12:45:41Z</time>
      </trkpt>
      <trkpt lat="45.49231" lon="5.98628">
        <ele>298</ele>
        <time>2019-10-28T12:45:44Z</time>
      </trkpt>
      <trkpt lat="45.49227" lon="5.98627">
        <ele>298</ele>
        <time>2019-10-28T12:45:47Z</time>
      </trkpt>
      <trkpt lat="45.49218" lon="5.98619">
        <ele>298</ele>
        <time>2019-10-28T12:45:55Z</time>
      </trkpt>
      <trkpt lat="45.49204" lon="5.98597">
        <ele>298</ele>
        <time>2019-10-28T12:46:19Z</time>
      </trkpt>
      <trkpt lat="45.49195" lon="5.98588">
        <ele>298</ele>
        <time>2019-10-28T12:46:28Z</time>
      </trkpt>
      <trkpt lat="45.49171" lon="5.98549">
        <ele>299</ele>
        <time>2019-10-28T12:47:00Z</time>
      </trkpt>
      <trkpt lat="45.49163" lon="5.98536">
        <ele>299</ele>
        <time>2019-10-28T12:47:12Z</time>
      </trkpt>
      <trkpt lat="45.49148" lon="5.9852">
        <ele>299</ele>
        <time>2019-10-28T12:47:27Z</time>
      </trkpt>
      <trkpt lat="45.49138" lon="5.98501">
        <ele>300</ele>
        <time>2019-10-28T12:47:41Z</time>
      </trkpt>
      <trkpt lat="45.49136" lon="5.98491">
        <ele>300</ele>
        <time>2019-10-28T12:47:47Z</time>
      </trkpt>
      <trkpt lat="45.49137" lon="5.98471">
        <ele>301</ele>
        <time>2019-10-28T12:47:58Z</time>
      </trkpt>
      <trkpt lat="45.49143" lon="5.98418">
        <ele>302</ele>
        <time>2019-10-28T12:48:30Z</time>
      </trkpt>
      <trkpt lat="45.49143" lon="5.98413">
        <ele>302</ele>
        <time>2019-10-28T12:48:33Z</time>
      </trkpt>
      <trkpt lat="45.49147" lon="5.98407">
        <ele>302</ele>
        <time>2019-10-28T12:48:35Z</time>
      </trkpt>
      <trkpt lat="45.49146" lon="5.98392">
        <ele>302</ele>
        <time>2019-10-28T12:48:44Z</time>
      </trkpt>
      <trkpt lat="45.49147" lon="5.98383">
        <ele>302</ele>
        <time>2019-10-28T12:48:50Z</time>
      </trkpt>
      <trkpt lat="45.49156" lon="5.98363">
        <ele>302</ele>
        <time>2019-10-28T12:49:05Z</time>
      </trkpt>
      <trkpt lat="45.49166" lon="5.98358">
        <ele>303</ele>
        <time>2019-10-28T12:49:13Z</time>
      </trkpt>
      <trkpt lat="45.49177" lon="5.98355">
        <ele>303</ele>
        <time>2019-10-28T12:49:23Z</time>
      </trkpt>
      <trkpt lat="45.49189" lon="5.98355">
        <ele>305</ele>
        <time>2019-10-28T12:50:13Z</time>
      </trkpt>
      <trkpt lat="45.49219" lon="5.9836">
        <ele>305</ele>
        <time>2019-10-28T12:50:43Z</time>
      </trkpt>
      <trkpt lat="45.49246" lon="5.98361">
        <ele>306</ele>
        <time>2019-10-28T12:51:07Z</time>
      </trkpt>
      <trkpt lat="45.49248" lon="5.98358">
        <ele>306</ele>
        <time>2019-10-28T12:51:11Z</time>
      </trkpt>
      <trkpt lat="45.49251" lon="5.98336">
        <ele>307</ele>
        <time>2019-10-28T12:51:27Z</time>
      </trkpt>
      <trkpt lat="45.49251" lon="5.98331">
        <ele>307</ele>
        <time>2019-10-28T12:51:31Z</time>
      </trkpt>
      <trkpt lat="45.49252" lon="5.98327">
        <ele>308</ele>
        <time>2019-10-28T12:51:39Z</time>
      </trkpt>
      <trkpt lat="45.49252" lon="5.98323">
        <ele>308</ele>
        <time>2019-10-28T12:51:42Z</time>
      </trkpt>
      <trkpt lat="45.49256" lon="5.9832">
        <ele>308</ele>
        <time>2019-10-28T12:51:47Z</time>
      </trkpt>
      <trkpt lat="45.4926" lon="5.98318">
        <ele>308</ele>
        <time>2019-10-28T12:51:51Z</time>
      </trkpt>
      <trkpt lat="45.49282" lon="5.983">
        <ele>310</ele>
        <time>2019-10-28T12:52:22Z</time>
      </trkpt>
      <trkpt lat="45.49288" lon="5.98296">
        <ele>311</ele>
        <time>2019-10-28T12:52:42Z</time>
      </trkpt>
      <trkpt lat="45.49288" lon="5.98295">
        <ele>315</ele>
        <time>2019-10-28T12:53:35Z</time>
      </trkpt>
      <trkpt lat="45.4929" lon="5.98292">
        <ele>315</ele>
        <time>2019-10-28T12:53:40Z</time>
      </trkpt>
      <trkpt lat="45.49297" lon="5.9829">
        <ele>316</ele>
        <time>2019-10-28T12:53:54Z</time>
      </trkpt>
      <trkpt lat="45.49301" lon="5.98289">
        <ele>317</ele>
        <time>2019-10-28T12:54:01Z</time>
      </trkpt>
      <trkpt lat="45.49305" lon="5.98289">
        <ele>318</ele>
        <time>2019-10-28T12:54:16Z</time>
      </trkpt>
      <trkpt lat="45.49302" lon="5.98288">
        <ele>319</ele>
        <time>2019-10-28T12:54:40Z</time>
      </trkpt>
      <trkpt lat="45.49299" lon="5.98287">
        <ele>320</ele>
        <time>2019-10-28T12:54:52Z</time>
      </trkpt>
      <trkpt lat="45.49302" lon="5.98283">
        <ele>320</ele>
        <time>2019-10-28T12:55:02Z</time>
      </trkpt>
      <trkpt lat="45.49301" lon="5.98271">
        <ele>321</ele>
        <time>2019-10-28T12:55:11Z</time>
      </trkpt>
      <trkpt lat="45.49299" lon="5.98267">
        <ele>321</ele>
        <time>2019-10-28T12:55:14Z</time>
      </trkpt>
      <trkpt lat="45.49297" lon="5.98265">
        <ele>321</ele>
        <time>2019-10-28T12:55:17Z</time>
      </trkpt>
      <trkpt lat="45.49295" lon="5.98262">
        <ele>321</ele>
        <time>2019-10-28T12:55:21Z</time>
      </trkpt>
      <trkpt lat="45.49292" lon="5.9826">
        <ele>321</ele>
        <time>2019-10-28T12:55:24Z</time>
      </trkpt>
      <trkpt lat="45.49289" lon="5.98257">
        <ele>322</ele>
        <time>2019-10-28T12:55:29Z</time>
      </trkpt>
      <trkpt lat="45.49287" lon="5.98251">
        <ele>322</ele>
        <time>2019-10-28T12:55:35Z</time>
      </trkpt>
      <trkpt lat="45.49291" lon="5.98249">
        <ele>322</ele>
        <time>2019-10-28T12:55:46Z</time>
      </trkpt>
      <trkpt lat="45.49294" lon="5.98247">
        <ele>323</ele>
        <time>2019-10-28T12:55:52Z</time>
      </trkpt>
      <trkpt lat="45.49298" lon="5.98248">
        <ele>323</ele>
        <time>2019-10-28T12:55:56Z</time>
      </trkpt>
      <trkpt lat="45.4931" lon="5.98252">
        <ele>324</ele>
        <time>2019-10-28T12:56:10Z</time>
      </trkpt>
      <trkpt lat="45.49315" lon="5.98254">
        <ele>324</ele>
        <time>2019-10-28T12:56:18Z</time>
      </trkpt>
      <trkpt lat="45.49323" lon="5.98258">
        <ele>325</ele>
        <time>2019-10-28T12:56:25Z</time>
      </trkpt>
      <trkpt lat="45.49327" lon="5.98257">
        <ele>325</ele>
        <time>2019-10-28T12:56:28Z</time>
      </trkpt>
      <trkpt lat="45.49331" lon="5.98258">
        <ele>325</ele>
        <time>2019-10-28T12:56:32Z</time>
      </trkpt>
      <trkpt lat="45.49346" lon="5.98255">
        <ele>327</ele>
        <time>2019-10-28T12:56:54Z</time>
      </trkpt>
      <trkpt lat="45.49349" lon="5.98258">
        <ele>329</ele>
        <time>2019-10-28T12:57:22Z</time>
      </trkpt>
      <trkpt lat="45.49353" lon="5.98254">
        <ele>332</ele>
        <time>2019-10-28T12:58:17Z</time>
      </trkpt>
      <trkpt lat="45.49357" lon="5.9825">
        <ele>334</ele>
        <time>2019-10-28T12:59:03Z</time>
      </trkpt>
      <trkpt lat="45.49367" lon="5.98249">
        <ele>335</ele>
        <time>2019-10-28T12:59:21Z</time>
      </trkpt>
      <trkpt lat="45.4937" lon="5.98251">
        <ele>335</ele>
        <time>2019-10-28T12:59:36Z</time>
      </trkpt>
      <trkpt lat="45.49376" lon="5.98252">
        <ele>335</ele>
        <time>2019-10-28T12:59:44Z</time>
      </trkpt>
      <trkpt lat="45.4938" lon="5.98249">
        <ele>335</ele>
        <time>2019-10-28T13:00:08Z</time>
      </trkpt>
      <trkpt lat="45.49383" lon="5.9825">
        <ele>335</ele>
        <time>2019-10-28T13:00:11Z</time>
      </trkpt>
      <trkpt lat="45.49389" lon="5.98247">
        <ele>336</ele>
        <time>2019-10-28T13:00:45Z</time>
      </trkpt>
      <trkpt lat="45.49391" lon="5.98245">
        <ele>336</ele>
        <time>2019-10-28T13:00:49Z</time>
      </trkpt>
      <trkpt lat="45.49394" lon="5.98244">
        <ele>336</ele>
        <time>2019-10-28T13:00:52Z</time>
      </trkpt>
      <trkpt lat="45.49402" lon="5.98237">
        <ele>336</ele>
        <time>2019-10-28T13:01:01Z</time>
      </trkpt>
      <trkpt lat="45.49405" lon="5.98234">
        <ele>336</ele>
        <time>2019-10-28T13:01:06Z</time>
      </trkpt>
      <trkpt lat="45.49406" lon="5.98231">
        <ele>336</ele>
        <time>2019-10-28T13:01:10Z</time>
      </trkpt>
      <trkpt lat="45.49409" lon="5.98227">
        <ele>336</ele>
        <time>2019-10-28T13:01:14Z</time>
      </trkpt>
      <trkpt lat="45.49413" lon="5.98222">
        <ele>336</ele>
        <time>2019-10-28T13:01:21Z</time>
      </trkpt>
      <trkpt lat="45.49416" lon="5.9822">
        <ele>337</ele>
        <time>2019-10-28T13:01:26Z</time>
      </trkpt>
      <trkpt lat="45.49414" lon="5.9822">
        <ele>338</ele>
        <time>2019-10-28T13:02:25Z</time>
      </trkpt>
      <trkpt lat="45.49411" lon="5.98222">
        <ele>338</ele>
        <time>2019-10-28T13:02:28Z</time>
      </trkpt>
      <trkpt lat="45.49409" lon="5.98225">
        <ele>338</ele>
        <time>2019-10-28T13:02:32Z</time>
      </trkpt>
      <trkpt lat="45.49405" lon="5.98235">
        <ele>338</ele>
        <time>2019-10-28T13:02:40Z</time>
      </trkpt>
      <trkpt lat="45.49402" lon="5.98238">
        <ele>338</ele>
        <time>2019-10-28T13:02:45Z</time>
      </trkpt>
      <trkpt lat="45.49397" lon="5.98241">
        <ele>338</ele>
        <time>2019-10-28T13:02:49Z</time>
      </trkpt>
      <trkpt lat="45.49395" lon="5.98243">
        <ele>338</ele>
        <time>2019-10-28T13:02:59Z</time>
      </trkpt>
      <trkpt lat="45.49391" lon="5.98244">
        <ele>338</ele>
        <time>2019-10-28T13:03:03Z</time>
      </trkpt>
      <trkpt lat="45.49379" lon="5.98248">
        <ele>338</ele>
        <time>2019-10-28T13:03:15Z</time>
      </trkpt>
      <trkpt lat="45.49374" lon="5.9825">
        <ele>338</ele>
        <time>2019-10-28T13:03:21Z</time>
      </trkpt>
      <trkpt lat="45.49366" lon="5.98248">
        <ele>339</ele>
        <time>2019-10-28T13:03:28Z</time>
      </trkpt>
      <trkpt lat="45.49354" lon="5.9825">
        <ele>339</ele>
        <time>2019-10-28T13:03:39Z</time>
      </trkpt>
      <trkpt lat="45.49353" lon="5.98255">
        <ele>339</ele>
        <time>2019-10-28T13:03:44Z</time>
      </trkpt>
      <trkpt lat="45.49371" lon="5.9826">
        <ele>339</ele>
        <time>2019-10-28T13:04:04Z</time>
      </trkpt>
      <trkpt lat="45.49382" lon="5.98256">
        <ele>339</ele>
        <time>2019-10-28T13:04:12Z</time>
      </trkpt>
      <trkpt lat="45.49383" lon="5.9826">
        <ele>339</ele>
        <time>2019-10-28T13:04:18Z</time>
      </trkpt>
      <trkpt lat="45.49386" lon="5.98255">
        <ele>339</ele>
        <time>2019-10-28T13:04:40Z</time>
      </trkpt>
      <trkpt lat="45.49389" lon="5.98253">
        <ele>339</ele>
        <time>2019-10-28T13:04:44Z</time>
      </trkpt>
      <trkpt lat="45.49393" lon="5.98252">
        <ele>339</ele>
        <time>2019-10-28T13:04:48Z</time>
      </trkpt>
      <trkpt lat="45.49397" lon="5.98249">
        <ele>339</ele>
        <time>2019-10-28T13:04:52Z</time>
      </trkpt>
      <trkpt lat="45.49401" lon="5.98249">
        <ele>339</ele>
        <time>2019-10-28T13:04:57Z</time>
      </trkpt>
      <trkpt lat="45.49403" lon="5.98252">
        <ele>339</ele>
        <time>2019-10-28T13:05:00Z</time>
      </trkpt>
      <trkpt lat="45.49405" lon="5.98257">
        <ele>339</ele>
        <time>2019-10-28T13:05:05Z</time>
      </trkpt>
      <trkpt lat="45.49408" lon="5.98258">
        <ele>339</ele>
        <time>2019-10-28T13:05:09Z</time>
      </trkpt>
      <trkpt lat="45.49409" lon="5.98261">
        <ele>339</ele>
        <time>2019-10-28T13:05:20Z</time>
      </trkpt>
      <trkpt lat="45.49426" lon="5.98265">
        <ele>338</ele>
        <time>2019-10-28T13:05:37Z</time>
      </trkpt>
      <trkpt lat="45.49429" lon="5.98266">
        <ele>338</ele>
        <time>2019-10-28T13:05:40Z</time>
      </trkpt>
      <trkpt lat="45.49439" lon="5.98268">
        <ele>338</ele>
        <time>2019-10-28T13:05:51Z</time>
      </trkpt>
      <trkpt lat="45.49449" lon="5.9827">
        <ele>338</ele>
        <time>2019-10-28T13:06:07Z</time>
      </trkpt>
      <trkpt lat="45.49459" lon="5.98275">
        <ele>338</ele>
        <time>2019-10-28T13:06:18Z</time>
      </trkpt>
      <trkpt lat="45.49465" lon="5.98277">
        <ele>338</ele>
        <time>2019-10-28T13:06:24Z</time>
      </trkpt>
      <trkpt lat="45.49476" lon="5.98281">
        <ele>338</ele>
        <time>2019-10-28T13:06:36Z</time>
      </trkpt>
      <trkpt lat="45.49481" lon="5.98278">
        <ele>337</ele>
        <time>2019-10-28T13:06:43Z</time>
      </trkpt>
      <trkpt lat="45.49493" lon="5.9827">
        <ele>337</ele>
        <time>2019-10-28T13:07:00Z</time>
      </trkpt>
      <trkpt lat="45.49498" lon="5.98267">
        <ele>337</ele>
        <time>2019-10-28T13:07:04Z</time>
      </trkpt>
      <trkpt lat="45.49504" lon="5.98264">
        <ele>337</ele>
        <time>2019-10-28T13:07:10Z</time>
      </trkpt>
      <trkpt lat="45.4951" lon="5.98262">
        <ele>337</ele>
        <time>2019-10-28T13:07:23Z</time>
      </trkpt>
      <trkpt lat="45.49534" lon="5.9825">
        <ele>337</ele>
        <time>2019-10-28T13:07:44Z</time>
      </trkpt>
      <trkpt lat="45.49534" lon="5.98245">
        <ele>337</ele>
        <time>2019-10-28T13:07:48Z</time>
      </trkpt>
      <trkpt lat="45.49537" lon="5.98238">
        <ele>338</ele>
        <time>2019-10-28T13:07:59Z</time>
      </trkpt>
      <trkpt lat="45.49539" lon="5.98218">
        <ele>340</ele>
        <time>2019-10-28T13:08:37Z</time>
      </trkpt>
      <trkpt lat="45.49542" lon="5.98209">
        <ele>341</ele>
        <time>2019-10-28T13:08:50Z</time>
      </trkpt>
      <trkpt lat="45.49542" lon="5.98201">
        <ele>341</ele>
        <time>2019-10-28T13:08:59Z</time>
      </trkpt>
      <trkpt lat="45.49546" lon="5.98194">
        <ele>342</ele>
        <time>2019-10-28T13:09:06Z</time>
      </trkpt>
      <trkpt lat="45.49542" lon="5.98189">
        <ele>344</ele>
        <time>2019-10-28T13:09:33Z</time>
      </trkpt>
      <trkpt lat="45.49542" lon="5.98181">
        <ele>345</ele>
        <time>2019-10-28T13:09:44Z</time>
      </trkpt>
      <trkpt lat="45.49546" lon="5.98175">
        <ele>346</ele>
        <time>2019-10-28T13:09:53Z</time>
      </trkpt>
      <trkpt lat="45.49548" lon="5.98167">
        <ele>346</ele>
        <time>2019-10-28T13:10:00Z</time>
      </trkpt>
      <trkpt lat="45.49543" lon="5.98165">
        <ele>348</ele>
        <time>2019-10-28T13:10:16Z</time>
      </trkpt>
      <trkpt lat="45.49542" lon="5.98161">
        <ele>350</ele>
        <time>2019-10-28T13:10:34Z</time>
      </trkpt>
      <trkpt lat="45.49545" lon="5.98151">
        <ele>353</ele>
        <time>2019-10-28T13:10:56Z</time>
      </trkpt>
      <trkpt lat="45.4954" lon="5.98146">
        <ele>357</ele>
        <time>2019-10-28T13:11:27Z</time>
      </trkpt>
      <trkpt lat="45.49544" lon="5.98141">
        <ele>359</ele>
        <time>2019-10-28T13:11:44Z</time>
      </trkpt>
      <trkpt lat="45.49547" lon="5.98134">
        <ele>361</ele>
        <time>2019-10-28T13:11:53Z</time>
      </trkpt>
      <trkpt lat="45.49549" lon="5.9813">
        <ele>363</ele>
        <time>2019-10-28T13:12:07Z</time>
      </trkpt>
      <trkpt lat="45.49544" lon="5.98128">
        <ele>364</ele>
        <time>2019-10-28T13:12:16Z</time>
      </trkpt>
      <trkpt lat="45.49542" lon="5.98123">
        <ele>367</ele>
        <time>2019-10-28T13:12:34Z</time>
      </trkpt>
      <trkpt lat="45.49544" lon="5.98119">
        <ele>367</ele>
        <time>2019-10-28T13:12:40Z</time>
      </trkpt>
      <trkpt lat="45.49543" lon="5.98113">
        <ele>368</ele>
        <time>2019-10-28T13:12:48Z</time>
      </trkpt>
      <trkpt lat="45.49542" lon="5.98106">
        <ele>369</ele>
        <time>2019-10-28T13:12:56Z</time>
      </trkpt>
      <trkpt lat="45.49536" lon="5.98109">
        <ele>373</ele>
        <time>2019-10-28T13:13:22Z</time>
      </trkpt>
      <trkpt lat="45.49533" lon="5.98113">
        <ele>374</ele>
        <time>2019-10-28T13:13:29Z</time>
      </trkpt>
      <trkpt lat="45.49532" lon="5.98109">
        <ele>377</ele>
        <time>2019-10-28T13:13:56Z</time>
      </trkpt>
      <trkpt lat="45.49533" lon="5.98105">
        <ele>378</ele>
        <time>2019-10-28T13:14:03Z</time>
      </trkpt>
      <trkpt lat="45.49535" lon="5.98103">
        <ele>379</ele>
        <time>2019-10-28T13:14:07Z</time>
      </trkpt>
      <trkpt lat="45.49536" lon="5.98097">
        <ele>382</ele>
        <time>2019-10-28T13:14:42Z</time>
      </trkpt>
      <trkpt lat="45.49537" lon="5.98093">
        <ele>383</ele>
        <time>2019-10-28T13:14:46Z</time>
      </trkpt>
      <trkpt lat="45.49535" lon="5.98094">
        <ele>385</ele>
        <time>2019-10-28T13:15:18Z</time>
      </trkpt>
      <trkpt lat="45.49531" lon="5.98095">
        <ele>385</ele>
        <time>2019-10-28T13:15:22Z</time>
      </trkpt>
      <trkpt lat="45.49531" lon="5.98098">
        <ele>387</ele>
        <time>2019-10-28T13:15:42Z</time>
      </trkpt>
      <trkpt lat="45.49539" lon="5.98092">
        <ele>387</ele>
        <time>2019-10-28T13:15:52Z</time>
      </trkpt>
      <trkpt lat="45.49541" lon="5.9809">
        <ele>387</ele>
        <time>2019-10-28T13:15:55Z</time>
      </trkpt>
      <trkpt lat="45.49542" lon="5.98085">
        <ele>388</ele>
        <time>2019-10-28T13:15:59Z</time>
      </trkpt>
      <trkpt lat="45.49543" lon="5.98081">
        <ele>388</ele>
        <time>2019-10-28T13:16:03Z</time>
      </trkpt>
      <trkpt lat="45.49541" lon="5.98081">
        <ele>389</ele>
        <time>2019-10-28T13:16:28Z</time>
      </trkpt>
      <trkpt lat="45.49541" lon="5.98087">
        <ele>391</ele>
        <time>2019-10-28T13:17:31Z</time>
      </trkpt>
      <trkpt lat="45.49537" lon="5.98109">
        <ele>391</ele>
        <time>2019-10-28T13:17:46Z</time>
      </trkpt>
      <trkpt lat="45.49537" lon="5.98109">
        <ele>392</ele>
        <time>2019-10-28T13:18:07Z</time>
      </trkpt>
      <trkpt lat="45.49548" lon="5.98103">
        <ele>392</ele>
        <time>2019-10-28T13:18:22Z</time>
      </trkpt>
      <trkpt lat="45.49551" lon="5.98101">
        <ele>391</ele>
        <time>2019-10-28T13:18:47Z</time>
      </trkpt>
      <trkpt lat="45.49551" lon="5.98096">
        <ele>391</ele>
        <time>2019-10-28T13:19:16Z</time>
      </trkpt>
      <trkpt lat="45.49553" lon="5.98093">
        <ele>391</ele>
        <time>2019-10-28T13:19:24Z</time>
      </trkpt>
      <trkpt lat="45.49551" lon="5.98085">
        <ele>391</ele>
        <time>2019-10-28T13:19:33Z</time>
      </trkpt>
      <trkpt lat="45.49549" lon="5.98072">
        <ele>391</ele>
        <time>2019-10-28T13:19:46Z</time>
      </trkpt>
      <trkpt lat="45.49549" lon="5.98068">
        <ele>392</ele>
        <time>2019-10-28T13:19:50Z</time>
      </trkpt>
      <trkpt lat="45.49548" lon="5.98064">
        <ele>392</ele>
        <time>2019-10-28T13:19:56Z</time>
      </trkpt>
      <trkpt lat="45.49544" lon="5.98067">
        <ele>392</ele>
        <time>2019-10-28T13:20:05Z</time>
      </trkpt>
      <trkpt lat="45.49539" lon="5.98076">
        <ele>392</ele>
        <time>2019-10-28T13:20:13Z</time>
      </trkpt>
      <trkpt lat="45.49536" lon="5.98078">
        <ele>392</ele>
        <time>2019-10-28T13:20:16Z</time>
      </trkpt>
      <trkpt lat="45.49531" lon="5.98083">
        <ele>392</ele>
        <time>2019-10-28T13:20:22Z</time>
      </trkpt>
      <trkpt lat="45.49531" lon="5.9808">
        <ele>392</ele>
        <time>2019-10-28T13:20:45Z</time>
      </trkpt>
      <trkpt lat="45.49537" lon="5.98077">
        <ele>393</ele>
        <time>2019-10-28T13:20:52Z</time>
      </trkpt>
      <trkpt lat="45.49539" lon="5.98073">
        <ele>393</ele>
        <time>2019-10-28T13:20:56Z</time>
      </trkpt>
      <trkpt lat="45.49541" lon="5.98069">
        <ele>393</ele>
        <time>2019-10-28T13:20:59Z</time>
      </trkpt>
      <trkpt lat="45.49545" lon="5.98063">
        <ele>393</ele>
        <time>2019-10-28T13:21:05Z</time>
      </trkpt>
      <trkpt lat="45.49557" lon="5.98053">
        <ele>393</ele>
        <time>2019-10-28T13:21:17Z</time>
      </trkpt>
      <trkpt lat="45.49587" lon="5.98036">
        <ele>394</ele>
        <time>2019-10-28T13:21:47Z</time>
      </trkpt>
      <trkpt lat="45.4959" lon="5.98035">
        <ele>394</ele>
        <time>2019-10-28T13:21:50Z</time>
      </trkpt>
      <trkpt lat="45.49591" lon="5.98036">
        <ele>394</ele>
        <time>2019-10-28T13:22:10Z</time>
      </trkpt>
      <trkpt lat="45.49588" lon="5.98038">
        <ele>394</ele>
        <time>2019-10-28T13:22:14Z</time>
      </trkpt>
      <trkpt lat="45.49589" lon="5.98047">
        <ele>394</ele>
        <time>2019-10-28T13:22:35Z</time>
      </trkpt>
      <trkpt lat="45.49592" lon="5.98062">
        <ele>394</ele>
        <time>2019-10-28T13:22:50Z</time>
      </trkpt>
      <trkpt lat="45.49595" lon="5.98072">
        <ele>394</ele>
        <time>2019-10-28T13:23:05Z</time>
      </trkpt>
      <trkpt lat="45.49597" lon="5.98084">
        <ele>393</ele>
        <time>2019-10-28T13:23:16Z</time>
      </trkpt>
      <trkpt lat="45.49601" lon="5.98087">
        <ele>393</ele>
        <time>2019-10-28T13:23:20Z</time>
      </trkpt>
      <trkpt lat="45.49603" lon="5.981">
        <ele>391</ele>
        <time>2019-10-28T13:23:55Z</time>
      </trkpt>
      <trkpt lat="45.49604" lon="5.98106">
        <ele>390</ele>
        <time>2019-10-28T13:24:00Z</time>
      </trkpt>
      <trkpt lat="45.49609" lon="5.98111">
        <ele>390</ele>
        <time>2019-10-28T13:24:07Z</time>
      </trkpt>
      <trkpt lat="45.49614" lon="5.98107">
        <ele>389</ele>
        <time>2019-10-28T13:24:13Z</time>
      </trkpt>
      <trkpt lat="45.49614" lon="5.98098">
        <ele>389</ele>
        <time>2019-10-28T13:24:21Z</time>
      </trkpt>
      <trkpt lat="45.4962" lon="5.98093">
        <ele>388</ele>
        <time>2019-10-28T13:24:32Z</time>
      </trkpt>
      <trkpt lat="45.49623" lon="5.98086">
        <ele>388</ele>
        <time>2019-10-28T13:24:39Z</time>
      </trkpt>
      <trkpt lat="45.49624" lon="5.98078">
        <ele>388</ele>
        <time>2019-10-28T13:24:46Z</time>
      </trkpt>
      <trkpt lat="45.49622" lon="5.9807">
        <ele>387</ele>
        <time>2019-10-28T13:25:01Z</time>
      </trkpt>
      <trkpt lat="45.49621" lon="5.98062">
        <ele>387</ele>
        <time>2019-10-28T13:25:10Z</time>
      </trkpt>
      <trkpt lat="45.49619" lon="5.98054">
        <ele>387</ele>
        <time>2019-10-28T13:25:17Z</time>
      </trkpt>
      <trkpt lat="45.49619" lon="5.98021">
        <ele>387</ele>
        <time>2019-10-28T13:25:43Z</time>
      </trkpt>
      <trkpt lat="45.49618" lon="5.9801">
        <ele>387</ele>
        <time>2019-10-28T13:25:54Z</time>
      </trkpt>
      <trkpt lat="45.49615" lon="5.98003">
        <ele>387</ele>
        <time>2019-10-28T13:26:02Z</time>
      </trkpt>
      <trkpt lat="45.49615" lon="5.97995">
        <ele>388</ele>
        <time>2019-10-28T13:26:18Z</time>
      </trkpt>
      <trkpt lat="45.49616" lon="5.9799">
        <ele>388</ele>
        <time>2019-10-28T13:26:33Z</time>
      </trkpt>
      <trkpt lat="45.49611" lon="5.97996">
        <ele>389</ele>
        <time>2019-10-28T13:26:53Z</time>
      </trkpt>
      <trkpt lat="45.49592" lon="5.9799">
        <ele>389</ele>
        <time>2019-10-28T13:27:12Z</time>
      </trkpt>
      <trkpt lat="45.49589" lon="5.97988">
        <ele>389</ele>
        <time>2019-10-28T13:27:15Z</time>
      </trkpt>
      <trkpt lat="45.49586" lon="5.97985">
        <ele>389</ele>
        <time>2019-10-28T13:27:19Z</time>
      </trkpt>
      <trkpt lat="45.49585" lon="5.97983">
        <ele>390</ele>
        <time>2019-10-28T13:27:21Z</time>
      </trkpt>
      <trkpt lat="45.49583" lon="5.97981">
        <ele>390</ele>
        <time>2019-10-28T13:27:23Z</time>
      </trkpt>
      <trkpt lat="45.49574" lon="5.9797">
        <ele>390</ele>
        <time>2019-10-28T13:27:35Z</time>
      </trkpt>
      <trkpt lat="45.4957" lon="5.97964">
        <ele>390</ele>
        <time>2019-10-28T13:27:41Z</time>
      </trkpt>
      <trkpt lat="45.49561" lon="5.97957">
        <ele>390</ele>
        <time>2019-10-28T13:27:50Z</time>
      </trkpt>
      <trkpt lat="45.49534" lon="5.9795">
        <ele>391</ele>
        <time>2019-10-28T13:28:20Z</time>
      </trkpt>
      <trkpt lat="45.4952" lon="5.97945">
        <ele>391</ele>
        <time>2019-10-28T13:28:35Z</time>
      </trkpt>
      <trkpt lat="45.49517" lon="5.97945">
        <ele>391</ele>
        <time>2019-10-28T13:28:40Z</time>
      </trkpt>
      <trkpt lat="45.49514" lon="5.97938">
        <ele>391</ele>
        <time>2019-10-28T13:29:07Z</time>
      </trkpt>
      <trkpt lat="45.49506" lon="5.97931">
        <ele>391</ele>
        <time>2019-10-28T13:29:21Z</time>
      </trkpt>
      <trkpt lat="45.49504" lon="5.97929">
        <ele>391</ele>
        <time>2019-10-28T13:29:24Z</time>
      </trkpt>
      <trkpt lat="45.495" lon="5.97924">
        <ele>391</ele>
        <time>2019-10-28T13:29:30Z</time>
      </trkpt>
      <trkpt lat="45.49495" lon="5.97916">
        <ele>390</ele>
        <time>2019-10-28T13:29:39Z</time>
      </trkpt>
      <trkpt lat="45.49493" lon="5.97913">
        <ele>390</ele>
        <time>2019-10-28T13:29:42Z</time>
      </trkpt>
      <trkpt lat="45.49491" lon="5.97912">
        <ele>390</ele>
        <time>2019-10-28T13:29:44Z</time>
      </trkpt>
      <trkpt lat="45.49487" lon="5.97909">
        <ele>390</ele>
        <time>2019-10-28T13:29:49Z</time>
      </trkpt>
      <trkpt lat="45.49481" lon="5.97907">
        <ele>389</ele>
        <time>2019-10-28T13:29:55Z</time>
      </trkpt>
      <trkpt lat="45.49471" lon="5.97899">
        <ele>388</ele>
        <time>2019-10-28T13:30:16Z</time>
      </trkpt>
      <trkpt lat="45.49466" lon="5.97892">
        <ele>388</ele>
        <time>2019-10-28T13:30:23Z</time>
      </trkpt>
      <trkpt lat="45.49464" lon="5.97891">
        <ele>388</ele>
        <time>2019-10-28T13:30:29Z</time>
      </trkpt>
      <trkpt lat="45.49463" lon="5.97888">
        <ele>387</ele>
        <time>2019-10-28T13:30:47Z</time>
      </trkpt>
      <trkpt lat="45.49462" lon="5.97886">
        <ele>387</ele>
        <time>2019-10-28T13:30:49Z</time>
      </trkpt>
      <trkpt lat="45.4946" lon="5.97884">
        <ele>386</ele>
        <time>2019-10-28T13:30:51Z</time>
      </trkpt>
      <trkpt lat="45.49458" lon="5.97882">
        <ele>386</ele>
        <time>2019-10-28T13:30:54Z</time>
      </trkpt>
      <trkpt lat="45.49459" lon="5.97877">
        <ele>386</ele>
        <time>2019-10-28T13:31:11Z</time>
      </trkpt>
      <trkpt lat="45.49462" lon="5.97868">
        <ele>385</ele>
        <time>2019-10-28T13:31:18Z</time>
      </trkpt>
      <trkpt lat="45.49463" lon="5.97853">
        <ele>385</ele>
        <time>2019-10-28T13:31:29Z</time>
      </trkpt>
      <trkpt lat="45.49464" lon="5.97848">
        <ele>385</ele>
        <time>2019-10-28T13:31:33Z</time>
      </trkpt>
      <trkpt lat="45.49463" lon="5.97835">
        <ele>384</ele>
        <time>2019-10-28T13:31:44Z</time>
      </trkpt>
      <trkpt lat="45.49468" lon="5.97792">
        <ele>384</ele>
        <time>2019-10-28T13:32:16Z</time>
      </trkpt>
      <trkpt lat="45.49469" lon="5.97786">
        <ele>384</ele>
        <time>2019-10-28T13:32:20Z</time>
      </trkpt>
      <trkpt lat="45.49469" lon="5.97777">
        <ele>384</ele>
        <time>2019-10-28T13:32:27Z</time>
      </trkpt>
      <trkpt lat="45.4947" lon="5.97769">
        <ele>384</ele>
        <time>2019-10-28T13:32:34Z</time>
      </trkpt>
      <trkpt lat="45.49472" lon="5.97755">
        <ele>384</ele>
        <time>2019-10-28T13:32:51Z</time>
      </trkpt>
      <trkpt lat="45.49471" lon="5.97746">
        <ele>385</ele>
        <time>2019-10-28T13:33:00Z</time>
      </trkpt>
      <trkpt lat="45.49463" lon="5.97715">
        <ele>385</ele>
        <time>2019-10-28T13:33:31Z</time>
      </trkpt>
      <trkpt lat="45.4946" lon="5.97702">
        <ele>386</ele>
        <time>2019-10-28T13:33:39Z</time>
      </trkpt>
      <trkpt lat="45.49446" lon="5.97668">
        <ele>386</ele>
        <time>2019-10-28T13:34:02Z</time>
      </trkpt>
      <trkpt lat="45.49441" lon="5.97655">
        <ele>386</ele>
        <time>2019-10-28T13:34:11Z</time>
      </trkpt>
      <trkpt lat="45.49434" lon="5.97648">
        <ele>387</ele>
        <time>2019-10-28T13:34:19Z</time>
      </trkpt>
      <trkpt lat="45.49432" lon="5.97643">
        <ele>387</ele>
        <time>2019-10-28T13:34:23Z</time>
      </trkpt>
      <trkpt lat="45.49427" lon="5.9759">
        <ele>387</ele>
        <time>2019-10-28T13:34:53Z</time>
      </trkpt>
      <trkpt lat="45.49428" lon="5.97585">
        <ele>387</ele>
        <time>2019-10-28T13:34:56Z</time>
      </trkpt>
      <trkpt lat="45.49425" lon="5.97575">
        <ele>388</ele>
        <time>2019-10-28T13:35:04Z</time>
      </trkpt>
      <trkpt lat="45.49423" lon="5.9757">
        <ele>388</ele>
        <time>2019-10-28T13:35:13Z</time>
      </trkpt>
      <trkpt lat="45.49419" lon="5.97549">
        <ele>389</ele>
        <time>2019-10-28T13:35:47Z</time>
      </trkpt>
      <trkpt lat="45.49416" lon="5.97539">
        <ele>389</ele>
        <time>2019-10-28T13:35:54Z</time>
      </trkpt>
      <trkpt lat="45.49417" lon="5.9753">
        <ele>389</ele>
        <time>2019-10-28T13:36:00Z</time>
      </trkpt>
      <trkpt lat="45.49416" lon="5.97525">
        <ele>389</ele>
        <time>2019-10-28T13:36:03Z</time>
      </trkpt>
      <trkpt lat="45.49416" lon="5.9752">
        <ele>389</ele>
        <time>2019-10-28T13:36:06Z</time>
      </trkpt>
      <trkpt lat="45.49417" lon="5.97515">
        <ele>389</ele>
        <time>2019-10-28T13:36:09Z</time>
      </trkpt>
      <trkpt lat="45.4942" lon="5.9751">
        <ele>389</ele>
        <time>2019-10-28T13:36:13Z</time>
      </trkpt>
      <trkpt lat="45.49432" lon="5.97496">
        <ele>389</ele>
        <time>2019-10-28T13:36:26Z</time>
      </trkpt>
      <trkpt lat="45.49439" lon="5.9749">
        <ele>389</ele>
        <time>2019-10-28T13:36:34Z</time>
      </trkpt>
      <trkpt lat="45.49449" lon="5.97478">
        <ele>390</ele>
        <time>2019-10-28T13:36:46Z</time>
      </trkpt>
      <trkpt lat="45.49453" lon="5.97474">
        <ele>390</ele>
        <time>2019-10-28T13:36:50Z</time>
      </trkpt>
      <trkpt lat="45.49453" lon="5.97469">
        <ele>390</ele>
        <time>2019-10-28T13:37:04Z</time>
      </trkpt>
      <trkpt lat="45.49451" lon="5.97456">
        <ele>390</ele>
        <time>2019-10-28T13:37:14Z</time>
      </trkpt>
      <trkpt lat="45.49449" lon="5.97451">
        <ele>391</ele>
        <time>2019-10-28T13:37:18Z</time>
      </trkpt>
      <trkpt lat="45.4945" lon="5.97445">
        <ele>391</ele>
        <time>2019-10-28T13:37:21Z</time>
      </trkpt>
      <trkpt lat="45.49448" lon="5.97435">
        <ele>391</ele>
        <time>2019-10-28T13:37:28Z</time>
      </trkpt>
      <trkpt lat="45.49447" lon="5.97429">
        <ele>391</ele>
        <time>2019-10-28T13:37:32Z</time>
      </trkpt>
      <trkpt lat="45.49447" lon="5.97423">
        <ele>391</ele>
        <time>2019-10-28T13:37:36Z</time>
      </trkpt>
      <trkpt lat="45.49441" lon="5.97415">
        <ele>391</ele>
        <time>2019-10-28T13:37:42Z</time>
      </trkpt>
      <trkpt lat="45.49424" lon="5.9738">
        <ele>391</ele>
        <time>2019-10-28T13:38:08Z</time>
      </trkpt>
      <trkpt lat="45.49424" lon="5.97377">
        <ele>391</ele>
        <time>2019-10-28T13:38:10Z</time>
      </trkpt>
      <trkpt lat="45.49423" lon="5.97373">
        <ele>391</ele>
        <time>2019-10-28T13:38:14Z</time>
      </trkpt>
      <trkpt lat="45.49422" lon="5.97369">
        <ele>392</ele>
        <time>2019-10-28T13:38:19Z</time>
      </trkpt>
      <trkpt lat="45.4942" lon="5.97361">
        <ele>392</ele>
        <time>2019-10-28T13:38:39Z</time>
      </trkpt>
      <trkpt lat="45.49419" lon="5.97331">
        <ele>392</ele>
        <time>2019-10-28T13:38:57Z</time>
      </trkpt>
      <trkpt lat="45.49422" lon="5.97299">
        <ele>392</ele>
        <time>2019-10-28T13:39:15Z</time>
      </trkpt>
      <trkpt lat="45.49421" lon="5.97294">
        <ele>392</ele>
        <time>2019-10-28T13:39:18Z</time>
      </trkpt>
      <trkpt lat="45.49419" lon="5.97284">
        <ele>392</ele>
        <time>2019-10-28T13:39:24Z</time>
      </trkpt>
      <trkpt lat="45.49407" lon="5.97274">
        <ele>392</ele>
        <time>2019-10-28T13:39:36Z</time>
      </trkpt>
      <trkpt lat="45.49404" lon="5.97272">
        <ele>392</ele>
        <time>2019-10-28T13:39:39Z</time>
      </trkpt>
      <trkpt lat="45.49391" lon="5.97266">
        <ele>392</ele>
        <time>2019-10-28T13:39:52Z</time>
      </trkpt>
      <trkpt lat="45.49381" lon="5.97258">
        <ele>392</ele>
        <time>2019-10-28T13:40:03Z</time>
      </trkpt>
      <trkpt lat="45.49364" lon="5.9725">
        <ele>392</ele>
        <time>2019-10-28T13:40:30Z</time>
      </trkpt>
      <trkpt lat="45.49331" lon="5.9725">
        <ele>392</ele>
        <time>2019-10-28T13:40:57Z</time>
      </trkpt>
      <trkpt lat="45.49324" lon="5.97249">
        <ele>392</ele>
        <time>2019-10-28T13:41:03Z</time>
      </trkpt>
      <trkpt lat="45.49321" lon="5.97249">
        <ele>392</ele>
        <time>2019-10-28T13:41:08Z</time>
      </trkpt>
      <trkpt lat="45.49318" lon="5.97252">
        <ele>392</ele>
        <time>2019-10-28T13:41:12Z</time>
      </trkpt>
      <trkpt lat="45.49317" lon="5.97274">
        <ele>392</ele>
        <time>2019-10-28T13:41:27Z</time>
      </trkpt>
      <trkpt lat="45.49317" lon="5.97271">
        <ele>392</ele>
        <time>2019-10-28T13:41:33Z</time>
      </trkpt>
      <trkpt lat="45.49316" lon="5.97248">
        <ele>392</ele>
        <time>2019-10-28T13:41:46Z</time>
      </trkpt>
      <trkpt lat="45.49317" lon="5.9722">
        <ele>392</ele>
        <time>2019-10-28T13:42:05Z</time>
      </trkpt>
      <trkpt lat="45.49316" lon="5.97213">
        <ele>392</ele>
        <time>2019-10-28T13:42:17Z</time>
      </trkpt>
      <trkpt lat="45.49316" lon="5.97188">
        <ele>392</ele>
        <time>2019-10-28T13:42:32Z</time>
      </trkpt>
      <trkpt lat="45.49315" lon="5.97178">
        <ele>393</ele>
        <time>2019-10-28T13:42:38Z</time>
      </trkpt>
      <trkpt lat="45.49315" lon="5.97134">
        <ele>393</ele>
        <time>2019-10-28T13:43:05Z</time>
      </trkpt>
      <trkpt lat="45.4931" lon="5.97115">
        <ele>393</ele>
        <time>2019-10-28T13:43:17Z</time>
      </trkpt>
      <trkpt lat="45.49306" lon="5.97111">
        <ele>394</ele>
        <time>2019-10-28T13:43:20Z</time>
      </trkpt>
      <trkpt lat="45.49308" lon="5.97106">
        <ele>394</ele>
        <time>2019-10-28T13:43:31Z</time>
      </trkpt>
      <trkpt lat="45.49303" lon="5.971">
        <ele>395</ele>
        <time>2019-10-28T13:44:00Z</time>
      </trkpt>
      <trkpt lat="45.49294" lon="5.9708">
        <ele>395</ele>
        <time>2019-10-28T13:44:15Z</time>
      </trkpt>
      <trkpt lat="45.4929" lon="5.97058">
        <ele>396</ele>
        <time>2019-10-28T13:44:27Z</time>
      </trkpt>
      <trkpt lat="45.49289" lon="5.97043">
        <ele>396</ele>
        <time>2019-10-28T13:44:36Z</time>
      </trkpt>
      <trkpt lat="45.49289" lon="5.9704">
        <ele>396</ele>
        <time>2019-10-28T13:44:38Z</time>
      </trkpt>
      <trkpt lat="45.49291" lon="5.97027">
        <ele>396</ele>
        <time>2019-10-28T13:44:46Z</time>
      </trkpt>
      <trkpt lat="45.49291" lon="5.97024">
        <ele>396</ele>
        <time>2019-10-28T13:44:48Z</time>
      </trkpt>
      <trkpt lat="45.49291" lon="5.9702">
        <ele>396</ele>
        <time>2019-10-28T13:44:51Z</time>
      </trkpt>
      <trkpt lat="45.49292" lon="5.97015">
        <ele>396</ele>
        <time>2019-10-28T13:44:54Z</time>
      </trkpt>
      <trkpt lat="45.49291" lon="5.97011">
        <ele>396</ele>
        <time>2019-10-28T13:44:57Z</time>
      </trkpt>
      <trkpt lat="45.49294" lon="5.96983">
        <ele>397</ele>
        <time>2019-10-28T13:45:28Z</time>
      </trkpt>
      <trkpt lat="45.49294" lon="5.96977">
        <ele>397</ele>
        <time>2019-10-28T13:45:31Z</time>
      </trkpt>
      <trkpt lat="45.49294" lon="5.9697">
        <ele>398</ele>
        <time>2019-10-28T13:45:34Z</time>
      </trkpt>
      <trkpt lat="45.49297" lon="5.96953">
        <ele>398</ele>
        <time>2019-10-28T13:45:44Z</time>
      </trkpt>
      <trkpt lat="45.49301" lon="5.96937">
        <ele>398</ele>
        <time>2019-10-28T13:45:56Z</time>
      </trkpt>
      <trkpt lat="45.49304" lon="5.96921">
        <ele>398</ele>
        <time>2019-10-28T13:46:05Z</time>
      </trkpt>
      <trkpt lat="45.49303" lon="5.96913">
        <ele>398</ele>
        <time>2019-10-28T13:46:11Z</time>
      </trkpt>
      <trkpt lat="45.49302" lon="5.96905">
        <ele>399</ele>
        <time>2019-10-28T13:46:16Z</time>
      </trkpt>
      <trkpt lat="45.49299" lon="5.96901">
        <ele>399</ele>
        <time>2019-10-28T13:46:20Z</time>
      </trkpt>
      <trkpt lat="45.49294" lon="5.96892">
        <ele>399</ele>
        <time>2019-10-28T13:46:27Z</time>
      </trkpt>
      <trkpt lat="45.49284" lon="5.96881">
        <ele>399</ele>
        <time>2019-10-28T13:46:38Z</time>
      </trkpt>
      <trkpt lat="45.49281" lon="5.96877">
        <ele>399</ele>
        <time>2019-10-28T13:46:42Z</time>
      </trkpt>
      <trkpt lat="45.49278" lon="5.96873">
        <ele>399</ele>
        <time>2019-10-28T13:46:46Z</time>
      </trkpt>
      <trkpt lat="45.49272" lon="5.96861">
        <ele>399</ele>
        <time>2019-10-28T13:46:55Z</time>
      </trkpt>
      <trkpt lat="45.49265" lon="5.96828">
        <ele>400</ele>
        <time>2019-10-28T13:47:16Z</time>
      </trkpt>
      <trkpt lat="45.49263" lon="5.96825">
        <ele>400</ele>
        <time>2019-10-28T13:47:19Z</time>
      </trkpt>
      <trkpt lat="45.4926" lon="5.96823">
        <ele>400</ele>
        <time>2019-10-28T13:47:22Z</time>
      </trkpt>
      <trkpt lat="45.49258" lon="5.96824">
        <ele>400</ele>
        <time>2019-10-28T13:47:25Z</time>
      </trkpt>
      <trkpt lat="45.49238" lon="5.96839">
        <ele>401</ele>
        <time>2019-10-28T13:47:47Z</time>
      </trkpt>
      <trkpt lat="45.49207" lon="5.96858">
        <ele>402</ele>
        <time>2019-10-28T13:48:17Z</time>
      </trkpt>
      <trkpt lat="45.49204" lon="5.9686">
        <ele>402</ele>
        <time>2019-10-28T13:48:21Z</time>
      </trkpt>
      <trkpt lat="45.49169" lon="5.9688">
        <ele>403</ele>
        <time>2019-10-28T13:48:53Z</time>
      </trkpt>
      <trkpt lat="45.4915" lon="5.96889">
        <ele>403</ele>
        <time>2019-10-28T13:49:09Z</time>
      </trkpt>
      <trkpt lat="45.49146" lon="5.96891">
        <ele>403</ele>
        <time>2019-10-28T13:49:12Z</time>
      </trkpt>
      <trkpt lat="45.49121" lon="5.96896">
        <ele>404</ele>
        <time>2019-10-28T13:49:34Z</time>
      </trkpt>
      <trkpt lat="45.49112" lon="5.96906">
        <ele>404</ele>
        <time>2019-10-28T13:49:43Z</time>
      </trkpt>
      <trkpt lat="45.49093" lon="5.96938">
        <ele>404</ele>
        <time>2019-10-28T13:50:07Z</time>
      </trkpt>
      <trkpt lat="45.4909" lon="5.96941">
        <ele>404</ele>
        <time>2019-10-28T13:50:10Z</time>
      </trkpt>
      <trkpt lat="45.49085" lon="5.96942">
        <ele>404</ele>
        <time>2019-10-28T13:50:18Z</time>
      </trkpt>
      <trkpt lat="45.49083" lon="5.96942">
        <ele>404</ele>
        <time>2019-10-28T13:50:22Z</time>
      </trkpt>
      <trkpt lat="45.49072" lon="5.9695">
        <ele>405</ele>
        <time>2019-10-28T13:50:33Z</time>
      </trkpt>
      <trkpt lat="45.4906" lon="5.9697">
        <ele>405</ele>
        <time>2019-10-28T13:50:50Z</time>
      </trkpt>
      <trkpt lat="45.49058" lon="5.96981">
        <ele>405</ele>
        <time>2019-10-28T13:50:57Z</time>
      </trkpt>
      <trkpt lat="45.49058" lon="5.96987">
        <ele>405</ele>
        <time>2019-10-28T13:51:02Z</time>
      </trkpt>
      <trkpt lat="45.49059" lon="5.96991">
        <ele>405</ele>
        <time>2019-10-28T13:51:21Z</time>
      </trkpt>
      <trkpt lat="45.49074" lon="5.96999">
        <ele>405</ele>
        <time>2019-10-28T13:51:51Z</time>
      </trkpt>
      <trkpt lat="45.49084" lon="5.97011">
        <ele>405</ele>
        <time>2019-10-28T13:52:04Z</time>
      </trkpt>
      <trkpt lat="45.49065" lon="5.96993">
        <ele>405</ele>
        <time>2019-10-28T13:52:33Z</time>
      </trkpt>
      <trkpt lat="45.49062" lon="5.9699">
        <ele>405</ele>
        <time>2019-10-28T13:52:37Z</time>
      </trkpt>
      <trkpt lat="45.49045" lon="5.97001">
        <ele>405</ele>
        <time>2019-10-28T13:52:56Z</time>
      </trkpt>
      <trkpt lat="45.49037" lon="5.97007">
        <ele>405</ele>
        <time>2019-10-28T13:53:41Z</time>
      </trkpt>
      <trkpt lat="45.49034" lon="5.97008">
        <ele>406</ele>
        <time>2019-10-28T13:54:02Z</time>
      </trkpt>
      <trkpt lat="45.4903" lon="5.97007">
        <ele>406</ele>
        <time>2019-10-28T13:54:06Z</time>
      </trkpt>
      <trkpt lat="45.49024" lon="5.97007">
        <ele>406</ele>
        <time>2019-10-28T13:54:14Z</time>
      </trkpt>
      <trkpt lat="45.49017" lon="5.97002">
        <ele>406</ele>
        <time>2019-10-28T13:54:22Z</time>
      </trkpt>
      <trkpt lat="45.48995" lon="5.96988">
        <ele>407</ele>
        <time>2019-10-28T13:54:47Z</time>
      </trkpt>
      <trkpt lat="45.48987" lon="5.96984">
        <ele>407</ele>
        <time>2019-10-28T13:54:57Z</time>
      </trkpt>
      <trkpt lat="45.48985" lon="5.9698">
        <ele>408</ele>
        <time>2019-10-28T13:55:01Z</time>
      </trkpt>
      <trkpt lat="45.48985" lon="5.96975">
        <ele>408</ele>
        <time>2019-10-28T13:55:05Z</time>
      </trkpt>
      <trkpt lat="45.48982" lon="5.96961">
        <ele>408</ele>
        <time>2019-10-28T13:55:17Z</time>
      </trkpt>
      <trkpt lat="45.48978" lon="5.96958">
        <ele>409</ele>
        <time>2019-10-28T13:55:22Z</time>
      </trkpt>
      <trkpt lat="45.48963" lon="5.96959">
        <ele>410</ele>
        <time>2019-10-28T13:55:36Z</time>
      </trkpt>
      <trkpt lat="45.48948" lon="5.96967">
        <ele>411</ele>
        <time>2019-10-28T13:55:54Z</time>
      </trkpt>
      <trkpt lat="45.48936" lon="5.96969">
        <ele>412</ele>
        <time>2019-10-28T13:56:04Z</time>
      </trkpt>
      <trkpt lat="45.48933" lon="5.96971">
        <ele>412</ele>
        <time>2019-10-28T13:56:07Z</time>
      </trkpt>
      <trkpt lat="45.4893" lon="5.96971">
        <ele>412</ele>
        <time>2019-10-28T13:56:10Z</time>
      </trkpt>
      <trkpt lat="45.48927" lon="5.96973">
        <ele>413</ele>
        <time>2019-10-28T13:56:13Z</time>
      </trkpt>
      <trkpt lat="45.48924" lon="5.96974">
        <ele>413</ele>
        <time>2019-10-28T13:56:16Z</time>
      </trkpt>
      <trkpt lat="45.48903" lon="5.96982">
        <ele>414</ele>
        <time>2019-10-28T13:56:35Z</time>
      </trkpt>
      <trkpt lat="45.48895" lon="5.96985">
        <ele>415</ele>
        <time>2019-10-28T13:56:44Z</time>
      </trkpt>
      <trkpt lat="45.48882" lon="5.96989">
        <ele>416</ele>
        <time>2019-10-28T13:56:56Z</time>
      </trkpt>
      <trkpt lat="45.48867" lon="5.97">
        <ele>417</ele>
        <time>2019-10-28T13:57:14Z</time>
      </trkpt>
      <trkpt lat="45.48864" lon="5.97">
        <ele>417</ele>
        <time>2019-10-28T13:57:18Z</time>
      </trkpt>
      <trkpt lat="45.48861" lon="5.97">
        <ele>418</ele>
        <time>2019-10-28T13:57:21Z</time>
      </trkpt>
      <trkpt lat="45.4885" lon="5.96998">
        <ele>418</ele>
        <time>2019-10-28T13:57:32Z</time>
      </trkpt>
      <trkpt lat="45.48846" lon="5.96997">
        <ele>419</ele>
        <time>2019-10-28T13:57:35Z</time>
      </trkpt>
      <trkpt lat="45.48839" lon="5.9699">
        <ele>420</ele>
        <time>2019-10-28T13:57:54Z</time>
      </trkpt>
      <trkpt lat="45.48813" lon="5.96981">
        <ele>423</ele>
        <time>2019-10-28T13:58:25Z</time>
      </trkpt>
      <trkpt lat="45.488" lon="5.96985">
        <ele>423</ele>
        <time>2019-10-28T13:58:35Z</time>
      </trkpt>
      <trkpt lat="45.48785" lon="5.96992">
        <ele>424</ele>
        <time>2019-10-28T13:58:47Z</time>
      </trkpt>
      <trkpt lat="45.48776" lon="5.96999">
        <ele>425</ele>
        <time>2019-10-28T13:58:55Z</time>
      </trkpt>
      <trkpt lat="45.48773" lon="5.97001">
        <ele>425</ele>
        <time>2019-10-28T13:58:58Z</time>
      </trkpt>
      <trkpt lat="45.48769" lon="5.97002">
        <ele>425</ele>
        <time>2019-10-28T13:59:01Z</time>
      </trkpt>
      <trkpt lat="45.48763" lon="5.97005">
        <ele>425</ele>
        <time>2019-10-28T13:59:06Z</time>
      </trkpt>
      <trkpt lat="45.48744" lon="5.9701">
        <ele>426</ele>
        <time>2019-10-28T13:59:23Z</time>
      </trkpt>
      <trkpt lat="45.48736" lon="5.97009">
        <ele>427</ele>
        <time>2019-10-28T13:59:29Z</time>
      </trkpt>
      <trkpt lat="45.48733" lon="5.97006">
        <ele>427</ele>
        <time>2019-10-28T13:59:33Z</time>
      </trkpt>
      <trkpt lat="45.48721" lon="5.96989">
        <ele>427</ele>
        <time>2019-10-28T13:59:45Z</time>
      </trkpt>
      <trkpt lat="45.48716" lon="5.96978">
        <ele>428</ele>
        <time>2019-10-28T13:59:52Z</time>
      </trkpt>
      <trkpt lat="45.48708" lon="5.96953">
        <ele>428</ele>
        <time>2019-10-28T14:00:09Z</time>
      </trkpt>
      <trkpt lat="45.48706" lon="5.96948">
        <ele>428</ele>
        <time>2019-10-28T14:00:13Z</time>
      </trkpt>
      <trkpt lat="45.48675" lon="5.96922">
        <ele>430</ele>
        <time>2019-10-28T14:00:45Z</time>
      </trkpt>
      <trkpt lat="45.48669" lon="5.96916">
        <ele>430</ele>
        <time>2019-10-28T14:00:51Z</time>
      </trkpt>
      <trkpt lat="45.48658" lon="5.96909">
        <ele>430</ele>
        <time>2019-10-28T14:01:02Z</time>
      </trkpt>
      <trkpt lat="45.48652" lon="5.96907">
        <ele>431</ele>
        <time>2019-10-28T14:01:08Z</time>
      </trkpt>
      <trkpt lat="45.48635" lon="5.96895">
        <ele>431</ele>
        <time>2019-10-28T14:01:24Z</time>
      </trkpt>
      <trkpt lat="45.48632" lon="5.96893">
        <ele>431</ele>
        <time>2019-10-28T14:01:28Z</time>
      </trkpt>
      <trkpt lat="45.48628" lon="5.96897">
        <ele>432</ele>
        <time>2019-10-28T14:01:33Z</time>
      </trkpt>
      <trkpt lat="45.48612" lon="5.9692">
        <ele>433</ele>
        <time>2019-10-28T14:01:51Z</time>
      </trkpt>
      <trkpt lat="45.48598" lon="5.96929">
        <ele>433</ele>
        <time>2019-10-28T14:02:04Z</time>
      </trkpt>
      <trkpt lat="45.48573" lon="5.96935">
        <ele>435</ele>
        <time>2019-10-28T14:02:29Z</time>
      </trkpt>
      <trkpt lat="45.48566" lon="5.96932">
        <ele>435</ele>
        <time>2019-10-28T14:02:37Z</time>
      </trkpt>
      <trkpt lat="45.48557" lon="5.96937">
        <ele>436</ele>
        <time>2019-10-28T14:02:45Z</time>
      </trkpt>
      <trkpt lat="45.48538" lon="5.96939">
        <ele>437</ele>
        <time>2019-10-28T14:03:12Z</time>
      </trkpt>
      <trkpt lat="45.48532" lon="5.96938">
        <ele>438</ele>
        <time>2019-10-28T14:03:45Z</time>
      </trkpt>
      <trkpt lat="45.48529" lon="5.96937">
        <ele>438</ele>
        <time>2019-10-28T14:03:49Z</time>
      </trkpt>
      <trkpt lat="45.48527" lon="5.96936">
        <ele>439</ele>
        <time>2019-10-28T14:03:52Z</time>
      </trkpt>
      <trkpt lat="45.48524" lon="5.96936">
        <ele>439</ele>
        <time>2019-10-28T14:03:56Z</time>
      </trkpt>
      <trkpt lat="45.48512" lon="5.96925">
        <ele>440</ele>
        <time>2019-10-28T14:04:18Z</time>
      </trkpt>
      <trkpt lat="45.48505" lon="5.96916">
        <ele>440</ele>
        <time>2019-10-28T14:04:28Z</time>
      </trkpt>
      <trkpt lat="45.48504" lon="5.96911">
        <ele>440</ele>
        <time>2019-10-28T14:04:30Z</time>
      </trkpt>
      <trkpt lat="45.48501" lon="5.96909">
        <ele>441</ele>
        <time>2019-10-28T14:04:35Z</time>
      </trkpt>
      <trkpt lat="45.48494" lon="5.96904">
        <ele>441</ele>
        <time>2019-10-28T14:04:44Z</time>
      </trkpt>
      <trkpt lat="45.48483" lon="5.96894">
        <ele>442</ele>
        <time>2019-10-28T14:04:56Z</time>
      </trkpt>
      <trkpt lat="45.48481" lon="5.96892">
        <ele>442</ele>
        <time>2019-10-28T14:04:59Z</time>
      </trkpt>
      <trkpt lat="45.48476" lon="5.96887">
        <ele>442</ele>
        <time>2019-10-28T14:05:05Z</time>
      </trkpt>
      <trkpt lat="45.48463" lon="5.96877">
        <ele>443</ele>
        <time>2019-10-28T14:05:17Z</time>
      </trkpt>
      <trkpt lat="45.48438" lon="5.96867">
        <ele>445</ele>
        <time>2019-10-28T14:05:41Z</time>
      </trkpt>
      <trkpt lat="45.48428" lon="5.96859">
        <ele>445</ele>
        <time>2019-10-28T14:05:51Z</time>
      </trkpt>
      <trkpt lat="45.48426" lon="5.96855">
        <ele>446</ele>
        <time>2019-10-28T14:05:54Z</time>
      </trkpt>
      <trkpt lat="45.48406" lon="5.96834">
        <ele>447</ele>
        <time>2019-10-28T14:06:17Z</time>
      </trkpt>
      <trkpt lat="45.48403" lon="5.96832">
        <ele>448</ele>
        <time>2019-10-28T14:06:21Z</time>
      </trkpt>
      <trkpt lat="45.484" lon="5.96829">
        <ele>448</ele>
        <time>2019-10-28T14:06:26Z</time>
      </trkpt>
      <trkpt lat="45.48397" lon="5.96826">
        <ele>448</ele>
        <time>2019-10-28T14:06:29Z</time>
      </trkpt>
      <trkpt lat="45.48395" lon="5.96823">
        <ele>449</ele>
        <time>2019-10-28T14:06:41Z</time>
      </trkpt>
      <trkpt lat="45.48391" lon="5.96817">
        <ele>450</ele>
        <time>2019-10-28T14:06:49Z</time>
      </trkpt>
      <trkpt lat="45.48372" lon="5.96801">
        <ele>452</ele>
        <time>2019-10-28T14:07:13Z</time>
      </trkpt>
      <trkpt lat="45.48368" lon="5.96797">
        <ele>452</ele>
        <time>2019-10-28T14:07:17Z</time>
      </trkpt>
      <trkpt lat="45.48365" lon="5.96793">
        <ele>453</ele>
        <time>2019-10-28T14:07:25Z</time>
      </trkpt>
      <trkpt lat="45.48355" lon="5.96791">
        <ele>455</ele>
        <time>2019-10-28T14:07:52Z</time>
      </trkpt>
      <trkpt lat="45.48351" lon="5.96791">
        <ele>456</ele>
        <time>2019-10-28T14:07:59Z</time>
      </trkpt>
      <trkpt lat="45.48348" lon="5.96794">
        <ele>464</ele>
        <time>2019-10-28T14:11:00Z</time>
      </trkpt>
      <trkpt lat="45.48334" lon="5.96804">
        <ele>465</ele>
        <time>2019-10-28T14:11:15Z</time>
      </trkpt>
      <trkpt lat="45.48319" lon="5.96809">
        <ele>465</ele>
        <time>2019-10-28T14:11:27Z</time>
      </trkpt>
      <trkpt lat="45.48308" lon="5.96807">
        <ele>465</ele>
        <time>2019-10-28T14:11:44Z</time>
      </trkpt>
      <trkpt lat="45.48303" lon="5.96809">
        <ele>465</ele>
        <time>2019-10-28T14:11:52Z</time>
      </trkpt>
      <trkpt lat="45.48298" lon="5.96814">
        <ele>465</ele>
        <time>2019-10-28T14:12:02Z</time>
      </trkpt>
      <trkpt lat="45.48294" lon="5.96838">
        <ele>466</ele>
        <time>2019-10-28T14:12:22Z</time>
      </trkpt>
      <trkpt lat="45.48294" lon="5.96846">
        <ele>467</ele>
        <time>2019-10-28T14:12:30Z</time>
      </trkpt>
      <trkpt lat="45.48295" lon="5.96855">
        <ele>467</ele>
        <time>2019-10-28T14:12:38Z</time>
      </trkpt>
      <trkpt lat="45.48293" lon="5.96875">
        <ele>468</ele>
        <time>2019-10-28T14:12:52Z</time>
      </trkpt>
      <trkpt lat="45.48293" lon="5.96879">
        <ele>469</ele>
        <time>2019-10-28T14:12:58Z</time>
      </trkpt>
      <trkpt lat="45.48291" lon="5.9688">
        <ele>469</ele>
        <time>2019-10-28T14:13:03Z</time>
      </trkpt>
      <trkpt lat="45.48287" lon="5.9688">
        <ele>470</ele>
        <time>2019-10-28T14:13:14Z</time>
      </trkpt>
      <trkpt lat="45.48274" lon="5.96878">
        <ele>472</ele>
        <time>2019-10-28T14:13:30Z</time>
      </trkpt>
      <trkpt lat="45.48269" lon="5.96879">
        <ele>472</ele>
        <time>2019-10-28T14:13:35Z</time>
      </trkpt>
      <trkpt lat="45.48268" lon="5.96879">
        <ele>475</ele>
        <time>2019-10-28T14:14:14Z</time>
      </trkpt>
      <trkpt lat="45.48271" lon="5.96882">
        <ele>478</ele>
        <time>2019-10-28T14:14:58Z</time>
      </trkpt>
      <trkpt lat="45.48269" lon="5.96884">
        <ele>482</ele>
        <time>2019-10-28T14:16:21Z</time>
      </trkpt>
      <trkpt lat="45.48269" lon="5.96878">
        <ele>483</ele>
        <time>2019-10-28T14:17:01Z</time>
      </trkpt>
      <trkpt lat="45.48266" lon="5.96877">
        <ele>484</ele>
        <time>2019-10-28T14:17:31Z</time>
      </trkpt>
      <trkpt lat="45.48263" lon="5.96878">
        <ele>484</ele>
        <time>2019-10-28T14:17:36Z</time>
      </trkpt>
      <trkpt lat="45.48253" lon="5.96881">
        <ele>484</ele>
        <time>2019-10-28T14:17:46Z</time>
      </trkpt>
      <trkpt lat="45.4825" lon="5.96884">
        <ele>484</ele>
        <time>2019-10-28T14:17:50Z</time>
      </trkpt>
      <trkpt lat="45.48246" lon="5.96886">
        <ele>484</ele>
        <time>2019-10-28T14:17:55Z</time>
      </trkpt>
      <trkpt lat="45.48239" lon="5.96893">
        <ele>484</ele>
        <time>2019-10-28T14:18:04Z</time>
      </trkpt>
      <trkpt lat="45.48235" lon="5.96902">
        <ele>484</ele>
        <time>2019-10-28T14:18:11Z</time>
      </trkpt>
      <trkpt lat="45.48228" lon="5.96917">
        <ele>484</ele>
        <time>2019-10-28T14:18:22Z</time>
      </trkpt>
      <trkpt lat="45.48225" lon="5.96922">
        <ele>484</ele>
        <time>2019-10-28T14:18:26Z</time>
      </trkpt>
      <trkpt lat="45.48201" lon="5.9694">
        <ele>485</ele>
        <time>2019-10-28T14:18:54Z</time>
      </trkpt>
      <trkpt lat="45.48193" lon="5.96942">
        <ele>486</ele>
        <time>2019-10-28T14:19:03Z</time>
      </trkpt>
      <trkpt lat="45.48189" lon="5.96941">
        <ele>486</ele>
        <time>2019-10-28T14:19:09Z</time>
      </trkpt>
      <trkpt lat="45.48186" lon="5.9694">
        <ele>486</ele>
        <time>2019-10-28T14:19:13Z</time>
      </trkpt>
      <trkpt lat="45.48181" lon="5.96944">
        <ele>488</ele>
        <time>2019-10-28T14:20:30Z</time>
      </trkpt>
      <trkpt lat="45.48172" lon="5.96946">
        <ele>488</ele>
        <time>2019-10-28T14:20:39Z</time>
      </trkpt>
      <trkpt lat="45.48169" lon="5.96949">
        <ele>488</ele>
        <time>2019-10-28T14:20:42Z</time>
      </trkpt>
      <trkpt lat="45.48165" lon="5.96955">
        <ele>488</ele>
        <time>2019-10-28T14:20:54Z</time>
      </trkpt>
      <trkpt lat="45.48162" lon="5.96953">
        <ele>488</ele>
        <time>2019-10-28T14:21:25Z</time>
      </trkpt>
      <trkpt lat="45.4816" lon="5.96951">
        <ele>488</ele>
        <time>2019-10-28T14:21:28Z</time>
      </trkpt>
      <trkpt lat="45.48157" lon="5.96949">
        <ele>488</ele>
        <time>2019-10-28T14:21:31Z</time>
      </trkpt>
      <trkpt lat="45.48157" lon="5.96955">
        <ele>487</ele>
        <time>2019-10-28T14:21:37Z</time>
      </trkpt>
      <trkpt lat="45.4816" lon="5.96958">
        <ele>487</ele>
        <time>2019-10-28T14:21:40Z</time>
      </trkpt>
      <trkpt lat="45.48176" lon="5.96973">
        <ele>487</ele>
        <time>2019-10-28T14:22:10Z</time>
      </trkpt>
      <trkpt lat="45.48177" lon="5.96975">
        <ele>487</ele>
        <time>2019-10-28T14:22:13Z</time>
      </trkpt>
      <trkpt lat="45.48183" lon="5.96979">
        <ele>487</ele>
        <time>2019-10-28T14:22:19Z</time>
      </trkpt>
      <trkpt lat="45.48196" lon="5.96985">
        <ele>487</ele>
        <time>2019-10-28T14:22:34Z</time>
      </trkpt>
      <trkpt lat="45.48202" lon="5.9699">
        <ele>487</ele>
        <time>2019-10-28T14:22:40Z</time>
      </trkpt>
      <trkpt lat="45.4821" lon="5.97001">
        <ele>487</ele>
        <time>2019-10-28T14:22:59Z</time>
      </trkpt>
      <trkpt lat="45.48212" lon="5.97005">
        <ele>487</ele>
        <time>2019-10-28T14:23:02Z</time>
      </trkpt>
      <trkpt lat="45.48212" lon="5.97016">
        <ele>487</ele>
        <time>2019-10-28T14:23:09Z</time>
      </trkpt>
      <trkpt lat="45.48212" lon="5.9702">
        <ele>486</ele>
        <time>2019-10-28T14:23:16Z</time>
      </trkpt>
      <trkpt lat="45.48215" lon="5.97052">
        <ele>486</ele>
        <time>2019-10-28T14:23:50Z</time>
      </trkpt>
      <trkpt lat="45.48216" lon="5.97056">
        <ele>485</ele>
        <time>2019-10-28T14:24:20Z</time>
      </trkpt>
      <trkpt lat="45.48218" lon="5.97066">
        <ele>485</ele>
        <time>2019-10-28T14:24:29Z</time>
      </trkpt>
      <trkpt lat="45.48219" lon="5.97072">
        <ele>485</ele>
        <time>2019-10-28T14:24:34Z</time>
      </trkpt>
      <trkpt lat="45.48219" lon="5.97076">
        <ele>484</ele>
        <time>2019-10-28T14:24:38Z</time>
      </trkpt>
      <trkpt lat="45.48237" lon="5.97108">
        <ele>483</ele>
        <time>2019-10-28T14:25:10Z</time>
      </trkpt>
      <trkpt lat="45.48238" lon="5.97113">
        <ele>483</ele>
        <time>2019-10-28T14:25:15Z</time>
      </trkpt>
      <trkpt lat="45.48239" lon="5.97119">
        <ele>482</ele>
        <time>2019-10-28T14:25:19Z</time>
      </trkpt>
      <trkpt lat="45.4824" lon="5.97125">
        <ele>482</ele>
        <time>2019-10-28T14:25:24Z</time>
      </trkpt>
      <trkpt lat="45.48243" lon="5.97134">
        <ele>481</ele>
        <time>2019-10-28T14:25:33Z</time>
      </trkpt>
      <trkpt lat="45.48251" lon="5.97152">
        <ele>480</ele>
        <time>2019-10-28T14:25:51Z</time>
      </trkpt>
      <trkpt lat="45.48255" lon="5.97155">
        <ele>479</ele>
        <time>2019-10-28T14:25:56Z</time>
      </trkpt>
      <trkpt lat="45.48262" lon="5.97171">
        <ele>478</ele>
        <time>2019-10-28T14:26:12Z</time>
      </trkpt>
      <trkpt lat="45.48264" lon="5.97176">
        <ele>478</ele>
        <time>2019-10-28T14:26:17Z</time>
      </trkpt>
      <trkpt lat="45.48264" lon="5.97178">
        <ele>476</ele>
        <time>2019-10-28T14:26:29Z</time>
      </trkpt>
      <trkpt lat="45.48264" lon="5.97184">
        <ele>471</ele>
        <time>2019-10-28T14:27:38Z</time>
      </trkpt>
      <trkpt lat="45.48267" lon="5.97187">
        <ele>471</ele>
        <time>2019-10-28T14:27:48Z</time>
      </trkpt>
      <trkpt lat="45.48271" lon="5.97189">
        <ele>470</ele>
        <time>2019-10-28T14:27:53Z</time>
      </trkpt>
      <trkpt lat="45.48278" lon="5.97195">
        <ele>469</ele>
        <time>2019-10-28T14:28:12Z</time>
      </trkpt>
      <trkpt lat="45.4828" lon="5.97199">
        <ele>469</ele>
        <time>2019-10-28T14:28:18Z</time>
      </trkpt>
      <trkpt lat="45.48287" lon="5.97206">
        <ele>467</ele>
        <time>2019-10-28T14:28:37Z</time>
      </trkpt>
      <trkpt lat="45.48291" lon="5.97206">
        <ele>467</ele>
        <time>2019-10-28T14:28:39Z</time>
      </trkpt>
      <trkpt lat="45.48298" lon="5.97216">
        <ele>464</ele>
        <time>2019-10-28T14:29:20Z</time>
      </trkpt>
      <trkpt lat="45.48294" lon="5.97218">
        <ele>460</ele>
        <time>2019-10-28T14:30:19Z</time>
      </trkpt>
      <trkpt lat="45.48304" lon="5.97238">
        <ele>459</ele>
        <time>2019-10-28T14:30:46Z</time>
      </trkpt>
      <trkpt lat="45.48309" lon="5.97243">
        <ele>458</ele>
        <time>2019-10-28T14:30:51Z</time>
      </trkpt>
      <trkpt lat="45.48311" lon="5.97248">
        <ele>454</ele>
        <time>2019-10-28T14:32:02Z</time>
      </trkpt>
      <trkpt lat="45.48313" lon="5.97253">
        <ele>454</ele>
        <time>2019-10-28T14:32:09Z</time>
      </trkpt>
      <trkpt lat="45.48321" lon="5.97277">
        <ele>452</ele>
        <time>2019-10-28T14:32:28Z</time>
      </trkpt>
      <trkpt lat="45.48321" lon="5.97283">
        <ele>452</ele>
        <time>2019-10-28T14:32:34Z</time>
      </trkpt>
      <trkpt lat="45.48324" lon="5.97295">
        <ele>451</ele>
        <time>2019-10-28T14:32:43Z</time>
      </trkpt>
      <trkpt lat="45.48325" lon="5.97301">
        <ele>451</ele>
        <time>2019-10-28T14:32:47Z</time>
      </trkpt>
      <trkpt lat="45.48335" lon="5.97346">
        <ele>448</ele>
        <time>2019-10-28T14:33:18Z</time>
      </trkpt>
      <trkpt lat="45.48338" lon="5.9736">
        <ele>447</ele>
        <time>2019-10-28T14:33:27Z</time>
      </trkpt>
      <trkpt lat="45.48341" lon="5.97364">
        <ele>447</ele>
        <time>2019-10-28T14:33:30Z</time>
      </trkpt>
      <trkpt lat="45.48358" lon="5.97376">
        <ele>445</ele>
        <time>2019-10-28T14:33:45Z</time>
      </trkpt>
      <trkpt lat="45.4839" lon="5.97387">
        <ele>443</ele>
        <time>2019-10-28T14:34:10Z</time>
      </trkpt>
      <trkpt lat="45.48407" lon="5.974">
        <ele>441</ele>
        <time>2019-10-28T14:34:28Z</time>
      </trkpt>
      <trkpt lat="45.48429" lon="5.97431">
        <ele>439</ele>
        <time>2019-10-28T14:34:58Z</time>
      </trkpt>
      <trkpt lat="45.4843" lon="5.97433">
        <ele>438</ele>
        <time>2019-10-28T14:35:01Z</time>
      </trkpt>
      <trkpt lat="45.48429" lon="5.97434">
        <ele>436</ele>
        <time>2019-10-28T14:35:34Z</time>
      </trkpt>
      <trkpt lat="45.48436" lon="5.97458">
        <ele>434</ele>
        <time>2019-10-28T14:35:58Z</time>
      </trkpt>
      <trkpt lat="45.48447" lon="5.97483">
        <ele>432</ele>
        <time>2019-10-28T14:36:19Z</time>
      </trkpt>
      <trkpt lat="45.48448" lon="5.97486">
        <ele>431</ele>
        <time>2019-10-28T14:36:28Z</time>
      </trkpt>
      <trkpt lat="45.48467" lon="5.97527">
        <ele>427</ele>
        <time>2019-10-28T14:36:59Z</time>
      </trkpt>
      <trkpt lat="45.48472" lon="5.97541">
        <ele>426</ele>
        <time>2019-10-28T14:37:08Z</time>
      </trkpt>
      <trkpt lat="45.48473" lon="5.97546">
        <ele>425</ele>
        <time>2019-10-28T14:37:11Z</time>
      </trkpt>
      <trkpt lat="45.48485" lon="5.9758">
        <ele>422</ele>
        <time>2019-10-28T14:37:32Z</time>
      </trkpt>
      <trkpt lat="45.48496" lon="5.976">
        <ele>420</ele>
        <time>2019-10-28T14:37:48Z</time>
      </trkpt>
      <trkpt lat="45.48502" lon="5.97605">
        <ele>419</ele>
        <time>2019-10-28T14:37:54Z</time>
      </trkpt>
      <trkpt lat="45.48506" lon="5.97606">
        <ele>419</ele>
        <time>2019-10-28T14:37:57Z</time>
      </trkpt>
      <trkpt lat="45.48514" lon="5.97617">
        <ele>418</ele>
        <time>2019-10-28T14:38:07Z</time>
      </trkpt>
      <trkpt lat="45.48537" lon="5.97666">
        <ele>414</ele>
        <time>2019-10-28T14:38:40Z</time>
      </trkpt>
      <trkpt lat="45.48537" lon="5.97696">
        <ele>412</ele>
        <time>2019-10-28T14:39:02Z</time>
      </trkpt>
      <trkpt lat="45.4854" lon="5.977">
        <ele>411</ele>
        <time>2019-10-28T14:39:17Z</time>
      </trkpt>
      <trkpt lat="45.48557" lon="5.97718">
        <ele>409</ele>
        <time>2019-10-28T14:39:41Z</time>
      </trkpt>
      <trkpt lat="45.4857" lon="5.97747">
        <ele>407</ele>
        <time>2019-10-28T14:40:07Z</time>
      </trkpt>
      <trkpt lat="45.48575" lon="5.97754">
        <ele>407</ele>
        <time>2019-10-28T14:40:13Z</time>
      </trkpt>
      <trkpt lat="45.48578" lon="5.97758">
        <ele>407</ele>
        <time>2019-10-28T14:40:17Z</time>
      </trkpt>
      <trkpt lat="45.48589" lon="5.97752">
        <ele>406</ele>
        <time>2019-10-28T14:40:28Z</time>
      </trkpt>
      <trkpt lat="45.48604" lon="5.9774">
        <ele>405</ele>
        <time>2019-10-28T14:40:44Z</time>
      </trkpt>
      <trkpt lat="45.48606" lon="5.97736">
        <ele>403</ele>
        <time>2019-10-28T14:41:06Z</time>
      </trkpt>
      <trkpt lat="45.48611" lon="5.97735">
        <ele>403</ele>
        <time>2019-10-28T14:41:11Z</time>
      </trkpt>
      <trkpt lat="45.48617" lon="5.97734">
        <ele>403</ele>
        <time>2019-10-28T14:41:17Z</time>
      </trkpt>
      <trkpt lat="45.4863" lon="5.97739">
        <ele>402</ele>
        <time>2019-10-28T14:41:31Z</time>
      </trkpt>
      <trkpt lat="45.48637" lon="5.97744">
        <ele>401</ele>
        <time>2019-10-28T14:41:37Z</time>
      </trkpt>
      <trkpt lat="45.48642" lon="5.97748">
        <ele>401</ele>
        <time>2019-10-28T14:41:42Z</time>
      </trkpt>
      <trkpt lat="45.48647" lon="5.97752">
        <ele>400</ele>
        <time>2019-10-28T14:41:47Z</time>
      </trkpt>
      <trkpt lat="45.48653" lon="5.97754">
        <ele>400</ele>
        <time>2019-10-28T14:41:52Z</time>
      </trkpt>
      <trkpt lat="45.48668" lon="5.97751">
        <ele>399</ele>
        <time>2019-10-28T14:42:04Z</time>
      </trkpt>
      <trkpt lat="45.48684" lon="5.97741">
        <ele>398</ele>
        <time>2019-10-28T14:42:20Z</time>
      </trkpt>
      <trkpt lat="45.48719" lon="5.97738">
        <ele>395</ele>
        <time>2019-10-28T14:42:50Z</time>
      </trkpt>
      <trkpt lat="45.48753" lon="5.97746">
        <ele>392</ele>
        <time>2019-10-28T14:43:21Z</time>
      </trkpt>
      <trkpt lat="45.48783" lon="5.97751">
        <ele>390</ele>
        <time>2019-10-28T14:43:48Z</time>
      </trkpt>
      <trkpt lat="45.48794" lon="5.97748">
        <ele>388</ele>
        <time>2019-10-28T14:44:00Z</time>
      </trkpt>
      <trkpt lat="45.48803" lon="5.97744">
        <ele>387</ele>
        <time>2019-10-28T14:44:09Z</time>
      </trkpt>
      <trkpt lat="45.48805" lon="5.97741">
        <ele>387</ele>
        <time>2019-10-28T14:44:12Z</time>
      </trkpt>
      <trkpt lat="45.48808" lon="5.97739">
        <ele>387</ele>
        <time>2019-10-28T14:44:15Z</time>
      </trkpt>
      <trkpt lat="45.48812" lon="5.97737">
        <ele>386</ele>
        <time>2019-10-28T14:44:20Z</time>
      </trkpt>
      <trkpt lat="45.48816" lon="5.97737">
        <ele>385</ele>
        <time>2019-10-28T14:44:39Z</time>
      </trkpt>
      <trkpt lat="45.48818" lon="5.97736">
        <ele>382</ele>
        <time>2019-10-28T14:45:04Z</time>
      </trkpt>
      <trkpt lat="45.48821" lon="5.97738">
        <ele>382</ele>
        <time>2019-10-28T14:45:07Z</time>
      </trkpt>
      <trkpt lat="45.48827" lon="5.97739">
        <ele>381</ele>
        <time>2019-10-28T14:45:13Z</time>
      </trkpt>
      <trkpt lat="45.48831" lon="5.97739">
        <ele>381</ele>
        <time>2019-10-28T14:45:17Z</time>
      </trkpt>
      <trkpt lat="45.48835" lon="5.97737">
        <ele>381</ele>
        <time>2019-10-28T14:45:23Z</time>
      </trkpt>
      <trkpt lat="45.4884" lon="5.97738">
        <ele>381</ele>
        <time>2019-10-28T14:45:29Z</time>
      </trkpt>
      <trkpt lat="45.48844" lon="5.97739">
        <ele>380</ele>
        <time>2019-10-28T14:45:33Z</time>
      </trkpt>
      <trkpt lat="45.48848" lon="5.9774">
        <ele>380</ele>
        <time>2019-10-28T14:45:45Z</time>
      </trkpt>
      <trkpt lat="45.48852" lon="5.9774">
        <ele>380</ele>
        <time>2019-10-28T14:45:48Z</time>
      </trkpt>
      <trkpt lat="45.48861" lon="5.97738">
        <ele>379</ele>
        <time>2019-10-28T14:46:02Z</time>
      </trkpt>
      <trkpt lat="45.48865" lon="5.97738">
        <ele>379</ele>
        <time>2019-10-28T14:46:16Z</time>
      </trkpt>
      <trkpt lat="45.48881" lon="5.97729">
        <ele>378</ele>
        <time>2019-10-28T14:46:29Z</time>
      </trkpt>
      <trkpt lat="45.48892" lon="5.97726">
        <ele>378</ele>
        <time>2019-10-28T14:46:40Z</time>
      </trkpt>
      <trkpt lat="45.48913" lon="5.97733">
        <ele>377</ele>
        <time>2019-10-28T14:47:10Z</time>
      </trkpt>
      <trkpt lat="45.48918" lon="5.97731">
        <ele>377</ele>
        <time>2019-10-28T14:47:14Z</time>
      </trkpt>
      <trkpt lat="45.48928" lon="5.97722">
        <ele>377</ele>
        <time>2019-10-28T14:47:23Z</time>
      </trkpt>
      <trkpt lat="45.48943" lon="5.97703">
        <ele>377</ele>
        <time>2019-10-28T14:47:40Z</time>
      </trkpt>
      <trkpt lat="45.48958" lon="5.97695">
        <ele>377</ele>
        <time>2019-10-28T14:47:57Z</time>
      </trkpt>
      <trkpt lat="45.4896" lon="5.9769">
        <ele>377</ele>
        <time>2019-10-28T14:48:12Z</time>
      </trkpt>
      <trkpt lat="45.48971" lon="5.97685">
        <ele>377</ele>
        <time>2019-10-28T14:48:24Z</time>
      </trkpt>
      <trkpt lat="45.48982" lon="5.97682">
        <ele>377</ele>
        <time>2019-10-28T14:48:32Z</time>
      </trkpt>
      <trkpt lat="45.4899" lon="5.97682">
        <ele>377</ele>
        <time>2019-10-28T14:48:40Z</time>
      </trkpt>
      <trkpt lat="45.49006" lon="5.97686">
        <ele>377</ele>
        <time>2019-10-28T14:48:53Z</time>
      </trkpt>
      <trkpt lat="45.49014" lon="5.97683">
        <ele>377</ele>
        <time>2019-10-28T14:49:00Z</time>
      </trkpt>
      <trkpt lat="45.49022" lon="5.97681">
        <ele>377</ele>
        <time>2019-10-28T14:49:09Z</time>
      </trkpt>
      <trkpt lat="45.49026" lon="5.97682">
        <ele>377</ele>
        <time>2019-10-28T14:49:13Z</time>
      </trkpt>
      <trkpt lat="45.49035" lon="5.97685">
        <ele>377</ele>
        <time>2019-10-28T14:49:21Z</time>
      </trkpt>
      <trkpt lat="45.49042" lon="5.97687">
        <ele>377</ele>
        <time>2019-10-28T14:49:27Z</time>
      </trkpt>
      <trkpt lat="45.49066" lon="5.9772">
        <ele>376</ele>
        <time>2019-10-28T14:49:57Z</time>
      </trkpt>
      <trkpt lat="45.49068" lon="5.97725">
        <ele>376</ele>
        <time>2019-10-28T14:50:06Z</time>
      </trkpt>
      <trkpt lat="45.49091" lon="5.9774">
        <ele>376</ele>
        <time>2019-10-28T14:50:26Z</time>
      </trkpt>
      <trkpt lat="45.49098" lon="5.97745">
        <ele>376</ele>
        <time>2019-10-28T14:50:33Z</time>
      </trkpt>
      <trkpt lat="45.491" lon="5.97749">
        <ele>376</ele>
        <time>2019-10-28T14:50:37Z</time>
      </trkpt>
      <trkpt lat="45.49085" lon="5.97775">
        <ele>376</ele>
        <time>2019-10-28T14:50:57Z</time>
      </trkpt>
      <trkpt lat="45.49082" lon="5.97781">
        <ele>376</ele>
        <time>2019-10-28T14:51:01Z</time>
      </trkpt>
      <trkpt lat="45.49078" lon="5.97791">
        <ele>376</ele>
        <time>2019-10-28T14:51:07Z</time>
      </trkpt>
      <trkpt lat="45.49063" lon="5.97812">
        <ele>376</ele>
        <time>2019-10-28T14:51:24Z</time>
      </trkpt>
      <trkpt lat="45.49055" lon="5.97831">
        <ele>375</ele>
        <time>2019-10-28T14:51:38Z</time>
      </trkpt>
      <trkpt lat="45.49051" lon="5.97849">
        <ele>375</ele>
        <time>2019-10-28T14:51:49Z</time>
      </trkpt>
      <trkpt lat="45.49051" lon="5.97873">
        <ele>375</ele>
        <time>2019-10-28T14:52:04Z</time>
      </trkpt>
      <trkpt lat="45.49054" lon="5.9789">
        <ele>375</ele>
        <time>2019-10-28T14:52:15Z</time>
      </trkpt>
      <trkpt lat="45.49058" lon="5.979">
        <ele>375</ele>
        <time>2019-10-28T14:52:22Z</time>
      </trkpt>
      <trkpt lat="45.4906" lon="5.97905">
        <ele>375</ele>
        <time>2019-10-28T14:52:26Z</time>
      </trkpt>
      <trkpt lat="45.49066" lon="5.97927">
        <ele>374</ele>
        <time>2019-10-28T14:52:40Z</time>
      </trkpt>
      <trkpt lat="45.49077" lon="5.97948">
        <ele>374</ele>
        <time>2019-10-28T14:52:54Z</time>
      </trkpt>
      <trkpt lat="45.49083" lon="5.97964">
        <ele>373</ele>
        <time>2019-10-28T14:53:06Z</time>
      </trkpt>
      <trkpt lat="45.4911" lon="5.98003">
        <ele>371</ele>
        <time>2019-10-28T14:53:36Z</time>
      </trkpt>
      <trkpt lat="45.49116" lon="5.98013">
        <ele>371</ele>
        <time>2019-10-28T14:53:42Z</time>
      </trkpt>
      <trkpt lat="45.49119" lon="5.98024">
        <ele>370</ele>
        <time>2019-10-28T14:53:52Z</time>
      </trkpt>
      <trkpt lat="45.49118" lon="5.98036">
        <ele>370</ele>
        <time>2019-10-28T14:53:59Z</time>
      </trkpt>
      <trkpt lat="45.49114" lon="5.98062">
        <ele>369</ele>
        <time>2019-10-28T14:54:14Z</time>
      </trkpt>
      <trkpt lat="45.49112" lon="5.98066">
        <ele>369</ele>
        <time>2019-10-28T14:54:16Z</time>
      </trkpt>
      <trkpt lat="45.4911" lon="5.98088">
        <ele>368</ele>
        <time>2019-10-28T14:54:31Z</time>
      </trkpt>
      <trkpt lat="45.49108" lon="5.98099">
        <ele>367</ele>
        <time>2019-10-28T14:54:40Z</time>
      </trkpt>
      <trkpt lat="45.49106" lon="5.98105">
        <ele>367</ele>
        <time>2019-10-28T14:54:44Z</time>
      </trkpt>
      <trkpt lat="45.49108" lon="5.9811">
        <ele>366</ele>
        <time>2019-10-28T14:54:47Z</time>
      </trkpt>
      <trkpt lat="45.49109" lon="5.98115">
        <ele>366</ele>
        <time>2019-10-28T14:54:52Z</time>
      </trkpt>
      <trkpt lat="45.4911" lon="5.98119">
        <ele>365</ele>
        <time>2019-10-28T14:54:59Z</time>
      </trkpt>
      <trkpt lat="45.4911" lon="5.98124">
        <ele>365</ele>
        <time>2019-10-28T14:55:03Z</time>
      </trkpt>
      <trkpt lat="45.49105" lon="5.98155">
        <ele>362</ele>
        <time>2019-10-28T14:55:29Z</time>
      </trkpt>
      <trkpt lat="45.49106" lon="5.9816">
        <ele>362</ele>
        <time>2019-10-28T14:55:33Z</time>
      </trkpt>
      <trkpt lat="45.49109" lon="5.98162">
        <ele>362</ele>
        <time>2019-10-28T14:55:37Z</time>
      </trkpt>
      <trkpt lat="45.49112" lon="5.98161">
        <ele>361</ele>
        <time>2019-10-28T14:55:41Z</time>
      </trkpt>
      <trkpt lat="45.49127" lon="5.98159">
        <ele>359</ele>
        <time>2019-10-28T14:55:58Z</time>
      </trkpt>
      <trkpt lat="45.4913" lon="5.98162">
        <ele>359</ele>
        <time>2019-10-28T14:56:02Z</time>
      </trkpt>
      <trkpt lat="45.49134" lon="5.98179">
        <ele>357</ele>
        <time>2019-10-28T14:56:17Z</time>
      </trkpt>
      <trkpt lat="45.49134" lon="5.98198">
        <ele>356</ele>
        <time>2019-10-28T14:56:32Z</time>
      </trkpt>
      <trkpt lat="45.49137" lon="5.982">
        <ele>355</ele>
        <time>2019-10-28T14:56:38Z</time>
      </trkpt>
      <trkpt lat="45.49137" lon="5.98202">
        <ele>353</ele>
        <time>2019-10-28T14:56:55Z</time>
      </trkpt>
      <trkpt lat="45.49135" lon="5.98202">
        <ele>352</ele>
        <time>2019-10-28T14:56:57Z</time>
      </trkpt>
      <trkpt lat="45.49133" lon="5.98202">
        <ele>352</ele>
        <time>2019-10-28T14:57:01Z</time>
      </trkpt>
      <trkpt lat="45.49124" lon="5.98233">
        <ele>349</ele>
        <time>2019-10-28T14:57:30Z</time>
      </trkpt>
      <trkpt lat="45.49122" lon="5.98237">
        <ele>348</ele>
        <time>2019-10-28T14:57:35Z</time>
      </trkpt>
      <trkpt lat="45.49126" lon="5.98241">
        <ele>347</ele>
        <time>2019-10-28T14:57:45Z</time>
      </trkpt>
      <trkpt lat="45.49142" lon="5.98243">
        <ele>345</ele>
        <time>2019-10-28T14:57:58Z</time>
      </trkpt>
      <trkpt lat="45.49145" lon="5.98244">
        <ele>344</ele>
        <time>2019-10-28T14:58:02Z</time>
      </trkpt>
      <trkpt lat="45.49157" lon="5.98251">
        <ele>343</ele>
        <time>2019-10-28T14:58:16Z</time>
      </trkpt>
      <trkpt lat="45.4916" lon="5.98252">
        <ele>342</ele>
        <time>2019-10-28T14:58:20Z</time>
      </trkpt>
      <trkpt lat="45.49164" lon="5.98253">
        <ele>342</ele>
        <time>2019-10-28T14:58:23Z</time>
      </trkpt>
      <trkpt lat="45.4917" lon="5.98258">
        <ele>341</ele>
        <time>2019-10-28T14:58:30Z</time>
      </trkpt>
      <trkpt lat="45.49173" lon="5.98264">
        <ele>341</ele>
        <time>2019-10-28T14:58:34Z</time>
      </trkpt>
      <trkpt lat="45.49175" lon="5.98272">
        <ele>340</ele>
        <time>2019-10-28T14:58:41Z</time>
      </trkpt>
      <trkpt lat="45.49174" lon="5.98279">
        <ele>339</ele>
        <time>2019-10-28T14:58:44Z</time>
      </trkpt>
      <trkpt lat="45.49176" lon="5.98284">
        <ele>339</ele>
        <time>2019-10-28T14:58:48Z</time>
      </trkpt>
      <trkpt lat="45.49179" lon="5.98292">
        <ele>338</ele>
        <time>2019-10-28T14:58:53Z</time>
      </trkpt>
      <trkpt lat="45.49175" lon="5.98336">
        <ele>334</ele>
        <time>2019-10-28T14:59:25Z</time>
      </trkpt>
      <trkpt lat="45.49173" lon="5.98348">
        <ele>333</ele>
        <time>2019-10-28T14:59:33Z</time>
      </trkpt>
      <trkpt lat="45.49172" lon="5.98353">
        <ele>333</ele>
        <time>2019-10-28T14:59:37Z</time>
      </trkpt>
      <trkpt lat="45.4917" lon="5.98359">
        <ele>332</ele>
        <time>2019-10-28T14:59:47Z</time>
      </trkpt>
      <trkpt lat="45.49165" lon="5.98361">
        <ele>331</ele>
        <time>2019-10-28T14:59:51Z</time>
      </trkpt>
      <trkpt lat="45.49158" lon="5.98363">
        <ele>331</ele>
        <time>2019-10-28T14:59:57Z</time>
      </trkpt>
      <trkpt lat="45.49152" lon="5.98367">
        <ele>330</ele>
        <time>2019-10-28T15:00:04Z</time>
      </trkpt>
      <trkpt lat="45.49145" lon="5.9838">
        <ele>329</ele>
        <time>2019-10-28T15:00:14Z</time>
      </trkpt>
      <trkpt lat="45.49142" lon="5.98389">
        <ele>328</ele>
        <time>2019-10-28T15:00:20Z</time>
      </trkpt>
      <trkpt lat="45.49136" lon="5.98441">
        <ele>325</ele>
        <time>2019-10-28T15:00:50Z</time>
      </trkpt>
      <trkpt lat="45.49132" lon="5.98463">
        <ele>324</ele>
        <time>2019-10-28T15:01:03Z</time>
      </trkpt>
      <trkpt lat="45.49135" lon="5.98477">
        <ele>323</ele>
        <time>2019-10-28T15:01:15Z</time>
      </trkpt>
      <trkpt lat="45.49135" lon="5.9849">
        <ele>323</ele>
        <time>2019-10-28T15:01:23Z</time>
      </trkpt>
      <trkpt lat="45.49134" lon="5.98495">
        <ele>322</ele>
        <time>2019-10-28T15:01:33Z</time>
      </trkpt>
      <trkpt lat="45.49144" lon="5.98515">
        <ele>321</ele>
        <time>2019-10-28T15:01:53Z</time>
      </trkpt>
      <trkpt lat="45.49148" lon="5.98521">
        <ele>320</ele>
        <time>2019-10-28T15:01:59Z</time>
      </trkpt>
      <trkpt lat="45.4915" lon="5.98526">
        <ele>320</ele>
        <time>2019-10-28T15:02:06Z</time>
      </trkpt>
      <trkpt lat="45.49158" lon="5.98546">
        <ele>318</ele>
        <time>2019-10-28T15:02:42Z</time>
      </trkpt>
      <trkpt lat="45.49168" lon="5.98569">
        <ele>317</ele>
        <time>2019-10-28T15:03:15Z</time>
      </trkpt>
      <trkpt lat="45.4917" lon="5.98573">
        <ele>316</ele>
        <time>2019-10-28T15:03:18Z</time>
      </trkpt>
      <trkpt lat="45.49177" lon="5.9858">
        <ele>316</ele>
        <time>2019-10-28T15:03:26Z</time>
      </trkpt>
      <trkpt lat="45.4918" lon="5.98586">
        <ele>316</ele>
        <time>2019-10-28T15:03:30Z</time>
      </trkpt>
      <trkpt lat="45.49197" lon="5.98609">
        <ele>315</ele>
        <time>2019-10-28T15:03:51Z</time>
      </trkpt>
      <trkpt lat="45.49209" lon="5.98613">
        <ele>315</ele>
        <time>2019-10-28T15:04:00Z</time>
      </trkpt>
      <trkpt lat="45.49213" lon="5.98616">
        <ele>315</ele>
        <time>2019-10-28T15:04:04Z</time>
      </trkpt>
      <trkpt lat="45.49225" lon="5.9863">
        <ele>315</ele>
        <time>2019-10-28T15:04:20Z</time>
      </trkpt>
      <trkpt lat="45.49231" lon="5.98631">
        <ele>314</ele>
        <time>2019-10-28T15:04:28Z</time>
      </trkpt>
      <trkpt lat="45.4924" lon="5.9864">
        <ele>314</ele>
        <time>2019-10-28T15:04:39Z</time>
      </trkpt>
      <trkpt lat="45.49252" lon="5.98653">
        <ele>313</ele>
        <time>2019-10-28T15:04:51Z</time>
      </trkpt>
      <trkpt lat="45.49272" lon="5.98679">
        <ele>313</ele>
        <time>2019-10-28T15:05:12Z</time>
      </trkpt>
      <trkpt lat="45.49298" lon="5.98708">
        <ele>312</ele>
        <time>2019-10-28T15:05:44Z</time>
      </trkpt>
      <trkpt lat="45.49307" lon="5.98721">
        <ele>312</ele>
        <time>2019-10-28T15:05:56Z</time>
      </trkpt>
      <trkpt lat="45.49312" lon="5.98732">
        <ele>311</ele>
        <time>2019-10-28T15:06:05Z</time>
      </trkpt>
      <trkpt lat="45.49334" lon="5.98753">
        <ele>311</ele>
        <time>2019-10-28T15:06:28Z</time>
      </trkpt>
      <trkpt lat="45.49347" lon="5.98787">
        <ele>310</ele>
        <time>2019-10-28T15:06:51Z</time>
      </trkpt>
      <trkpt lat="45.4937" lon="5.98821">
        <ele>309</ele>
        <time>2019-10-28T15:07:20Z</time>
      </trkpt>
      <trkpt lat="45.4937" lon="5.98828">
        <ele>308</ele>
        <time>2019-10-28T15:09:04Z</time>
      </trkpt>
      <trkpt lat="45.4937" lon="5.98828">
        <ele>308</ele>
        <time>2019-10-28T15:09:05Z</time>
      </trkpt>
      <trkpt lat="45.49371" lon="5.98832">
        <ele>308</ele>
        <time>2019-10-28T15:09:22Z</time>
      </trkpt>
      <trkpt lat="45.49368" lon="5.98825">
        <ele>307</ele>
        <time>2019-10-28T15:11:49Z</time>
      </trkpt>
      <trkpt lat="45.49308" lon="5.98739">
        <ele>307</ele>
        <time>2019-10-28T15:12:19Z</time>
      </trkpt>
      <trkpt lat="45.49238" lon="5.98641">
        <ele>307</ele>
        <time>2019-10-28T15:12:37Z</time>
      </trkpt>
      <trkpt lat="45.49233" lon="5.98635">
        <ele>307</ele>
        <time>2019-10-28T15:12:39Z</time>
      </trkpt>
      <trkpt lat="45.49229" lon="5.98633">
        <ele>307</ele>
        <time>2019-10-28T15:12:41Z</time>
      </trkpt>
      <trkpt lat="45.49226" lon="5.98636">
        <ele>307</ele>
        <time>2019-10-28T15:12:46Z</time>
      </trkpt>
      <trkpt lat="45.49224" lon="5.98643">
        <ele>307</ele>
        <time>2019-10-28T15:12:48Z</time>
      </trkpt>
      <trkpt lat="45.49401" lon="5.98898">
        <ele>307</ele>
        <time>2019-10-28T15:13:18Z</time>
      </trkpt>
      <trkpt lat="45.495" lon="5.99048">
        <ele>307</ele>
        <time>2019-10-28T15:13:33Z</time>
      </trkpt>
    </trkseg>
  </trk>
</gpx>